Time,TemperatureF,DewpointF,PressureIn,WindDirection,WindDirectionDegrees,WindSpeedMPH,WindSpeedGustMPH,Humidity,HourlyPrecipIn,Conditions,Clouds,dailyrainin,SoftwareType,DateUTC
2013-07-16 00:01:00,82.2,76.5,29.90,East,100,11.0,12.0,83,0.00,,---,0.00,VWS V14.00,2013-07-16 05:01:00,
2013-07-16 00:06:00,82.0,76.0,29.91,ESE,119,6.0,11.0,82,0.00,,---,0.00,VWS V14.00,2013-07-16 05:06:00,
2013-07-16 00:11:00,82.0,76.0,29.90,ESE,112,9.0,11.0,82,0.00,,---,0.00,VWS V14.00,2013-07-16 05:11:00,
2013-07-16 00:16:00,82.0,76.0,29.91,ESE,107,9.0,10.0,82,0.00,,---,0.00,VWS V14.00,2013-07-16 05:16:00,
2013-07-16 00:21:00,82.0,76.0,29.91,ESE,113,8.0,9.0,82,0.00,,---,0.00,VWS V14.00,2013-07-16 05:21:00,
2013-07-16 00:26:00,81.9,75.9,29.90,ESE,113,9.0,11.0,82,0.00,,---,0.00,VWS V14.00,2013-07-16 05:26:00,
2013-07-16 00:31:00,81.8,75.8,29.90,ESE,119,8.0,11.0,82,0.00,,---,0.00,VWS V14.00,2013-07-16 05:31:00,
2013-07-16 00:36:00,81.7,75.7,29.90,ESE,119,8.0,8.0,82,0.00,,---,0.00,VWS V14.00,2013-07-16 05:36:00,
2013-07-16 00:41:00,81.6,75.6,29.90,ESE,104,6.0,8.0,82,0.00,,---,0.00,VWS V14.00,2013-07-16 05:41:00,
2013-07-16 00:46:00,81.5,75.5,29.90,ESE,112,6.0,8.0,82,0.00,,---,0.00,VWS V14.00,2013-07-16 05:46:00,
2013-07-16 00:51:00,81.5,75.8,29.90,ESE,115,6.0,8.0,83,0.00,,---,0.00,VWS V14.00,2013-07-16 05:51:00,
2013-07-16 00:56:00,81.4,75.7,29.90,ESE,115,5.0,6.0,83,0.00,,---,0.00,VWS V14.00,2013-07-16 05:56:00,
2013-07-16 01:01:00,81.3,75.7,29.91,ESE,111,4.0,6.0,83,0.00,,---,0.00,VWS V14.00,2013-07-16 06:01:00,
2013-07-16 01:06:00,81.3,76.0,29.91,ESE,118,7.0,8.0,84,0.00,,---,0.00,VWS V14.00,2013-07-16 06:06:00,
2013-07-16 01:11:00,81.4,76.1,29.90,SE,126,6.0,6.0,84,0.00,,---,0.00,VWS V14.00,2013-07-16 06:11:00,
2013-07-16 01:16:00,81.5,76.2,29.91,SE,125,8.0,8.0,84,0.00,,---,0.00,VWS V14.00,2013-07-16 06:16:00,
2013-07-16 01:21:00,81.6,76.3,29.91,SE,130,9.0,11.0,84,0.00,,---,0.00,VWS V14.00,2013-07-16 06:21:00,
2013-07-16 01:26:00,81.6,76.3,29.91,ESE,119,6.0,7.0,84,0.00,,---,0.00,VWS V14.00,2013-07-16 06:26:00,
2013-07-16 01:31:00,81.6,76.3,29.91,ESE,112,8.0,8.0,84,0.00,,---,0.00,VWS V14.00,2013-07-16 06:31:00,
2013-07-16 01:36:00,81.6,76.3,29.90,ESE,112,7.0,9.0,84,0.00,,---,0.00,VWS V14.00,2013-07-16 06:36:00,
2013-07-16 01:41:00,81.6,75.9,29.90,ESE,112,6.0,7.0,83,0.00,,---,0.00,VWS V14.00,2013-07-16 06:41:00,
2013-07-16 01:46:00,81.6,76.3,29.90,ESE,111,7.0,8.0,84,0.00,,---,0.00,VWS V14.00,2013-07-16 06:46:00,
2013-07-16 01:51:00,81.6,76.3,29.91,ESE,103,7.0,8.0,84,0.00,,---,0.00,VWS V14.00,2013-07-16 06:51:00,
2013-07-16 01:56:00,81.8,76.5,29.90,ESE,111,11.0,11.0,84,0.00,,---,0.00,VWS V14.00,2013-07-16 06:56:00,
2013-07-16 02:01:00,81.8,76.5,29.90,East,92,6.0,6.0,84,0.00,,---,0.00,VWS V14.00,2013-07-16 07:01:00,
2013-07-16 02:06:00,81.7,76.4,29.90,East,96,8.0,8.0,84,0.00,,---,0.00,VWS V14.00,2013-07-16 07:06:00,
2013-07-16 02:11:00,81.7,76.4,29.90,East,98,7.0,11.0,84,0.00,,---,0.00,VWS V14.00,2013-07-16 07:11:00,
2013-07-16 02:16:00,81.6,76.3,29.90,ESE,115,18.0,18.0,84,0.00,,---,0.00,VWS V14.00,2013-07-16 07:16:00,
2013-07-16 02:21:00,79.8,75.2,29.91,SE,126,9.0,12.0,86,0.06,,---,0.06,VWS V14.00,2013-07-16 07:21:00,
2013-07-16 02:26:00,78.7,74.8,29.91,SE,128,5.0,9.0,88,0.09,,---,0.09,VWS V14.00,2013-07-16 07:26:00,
2013-07-16 02:31:00,77.3,73.5,29.90,SE,129,6.0,9.0,88,0.10,,---,0.10,VWS V14.00,2013-07-16 07:31:00,
2013-07-16 02:36:00,76.8,73.3,29.89,ESE,111,11.0,12.0,89,0.10,,---,0.10,VWS V14.00,2013-07-16 07:36:00,
2013-07-16 02:41:00,77.2,73.7,29.89,SE,130,7.0,7.0,89,0.10,,---,0.10,VWS V14.00,2013-07-16 07:41:00,
2013-07-16 02:46:00,77.3,73.5,29.89,ESE,111,2.0,6.0,88,0.10,,---,0.10,VWS V14.00,2013-07-16 07:46:00,
2013-07-16 02:51:00,77.3,73.5,29.89,ESE,109,2.0,6.0,88,0.10,,---,0.10,VWS V14.00,2013-07-16 07:51:00,
2013-07-16 02:56:00,77.4,73.6,29.89,ESE,109,0.0,0.0,88,0.10,,---,0.10,VWS V14.00,2013-07-16 07:56:00,
2013-07-16 03:01:00,77.4,73.6,29.89,ESE,112,0.0,0.0,88,0.10,,---,0.10,VWS V14.00,2013-07-16 08:01:00,
2013-07-16 03:06:00,77.6,73.8,29.89,ESE,111,0.0,0.0,88,0.10,,---,0.10,VWS V14.00,2013-07-16 08:06:00,
2013-07-16 03:11:00,77.7,73.9,29.89,ESE,111,0.0,0.0,88,0.10,,---,0.10,VWS V14.00,2013-07-16 08:11:00,
2013-07-16 03:16:00,77.9,74.4,29.89,SE,131,0.0,0.0,89,0.10,,---,0.10,VWS V14.00,2013-07-16 08:16:00,
2013-07-16 03:21:00,77.9,74.1,29.89,SE,130,0.0,0.0,88,0.04,,---,0.10,VWS V14.00,2013-07-16 08:21:00,
2013-07-16 03:26:00,77.8,74.3,29.89,SE,131,0.0,0.0,89,0.01,,---,0.10,VWS V14.00,2013-07-16 08:26:00,
2013-07-16 03:31:00,77.7,74.2,29.89,SE,130,0.0,0.0,89,0.00,,---,0.10,VWS V14.00,2013-07-16 08:31:00,
2013-07-16 03:36:00,78.0,74.5,29.89,SE,131,0.0,0.0,89,0.00,,---,0.10,VWS V14.00,2013-07-16 08:36:00,
2013-07-16 03:41:00,78.1,74.6,29.89,SE,131,0.0,0.0,89,0.00,,---,0.10,VWS V14.00,2013-07-16 08:41:00,
2013-07-16 03:46:00,78.1,74.9,29.89,SE,130,0.0,0.0,90,0.00,,---,0.10,VWS V14.00,2013-07-16 08:46:00,
2013-07-16 03:51:00,78.1,74.9,29.89,SE,131,0.0,0.0,90,0.00,,---,0.10,VWS V14.00,2013-07-16 08:51:00,
2013-07-16 03:56:00,77.9,74.7,29.88,SE,130,0.0,0.0,90,0.00,,---,0.10,VWS V14.00,2013-07-16 08:56:00,
2013-07-16 04:01:00,77.7,74.5,29.88,SE,130,0.0,0.0,90,0.00,,---,0.10,VWS V14.00,2013-07-16 09:01:00,
2013-07-16 04:06:00,77.5,74.3,29.88,SE,130,0.0,0.0,90,0.00,,---,0.10,VWS V14.00,2013-07-16 09:06:00,
2013-07-16 04:11:00,77.4,74.2,29.88,SE,130,0.0,0.0,90,0.00,,---,0.10,VWS V14.00,2013-07-16 09:11:00,
2013-07-16 04:16:00,77.2,74.0,29.88,SE,130,0.0,0.0,90,0.00,,---,0.10,VWS V14.00,2013-07-16 09:16:00,
2013-07-16 04:21:00,77.1,74.3,29.88,SE,130,0.0,0.0,91,0.00,,---,0.10,VWS V14.00,2013-07-16 09:21:00,
2013-07-16 04:26:00,77.1,74.3,29.88,SE,130,0.0,0.0,91,0.00,,---,0.10,VWS V14.00,2013-07-16 09:26:00,
2013-07-16 04:31:00,77.1,74.3,29.88,SE,130,0.0,0.0,91,0.00,,---,0.10,VWS V14.00,2013-07-16 09:31:00,
2013-07-16 04:36:00,77.0,74.2,29.88,SE,130,0.0,0.0,91,0.00,,---,0.10,VWS V14.00,2013-07-16 09:36:00,
2013-07-16 04:41:00,77.0,74.2,29.88,NE,47,0.0,0.0,91,0.00,,---,0.10,VWS V14.00,2013-07-16 09:41:00,
2013-07-16 04:46:00,77.0,74.2,29.87,NE,46,0.0,0.0,91,0.00,,---,0.10,VWS V14.00,2013-07-16 09:46:00,
2013-07-16 04:49:00,77.0,74.2,29.88,NE,47,0.0,0.0,91,0.00,,---,0.10,VWS V14.00,2013-07-16 09:49:00,
2013-07-16 04:50:00,77.0,74.2,29.87,NE,47,0.0,0.0,91,0.00,,---,0.10,VWS V14.00,2013-07-16 09:50:00,
2013-07-16 04:51:00,76.9,74.1,29.88,NE,47,0.0,0.0,91,0.00,,---,0.10,VWS V14.00,2013-07-16 09:51:00,
2013-07-16 04:52:00,76.9,74.1,29.87,NE,47,0.0,0.0,91,0.00,,---,0.10,VWS V14.00,2013-07-16 09:52:00,
2013-07-16 04:53:00,76.9,74.1,29.87,NE,46,0.0,0.0,91,0.00,,---,0.10,VWS V14.00,2013-07-16 09:53:00,
2013-07-16 04:54:00,76.9,74.1,29.87,NE,47,0.0,0.0,91,0.00,,---,0.10,VWS V14.00,2013-07-16 09:54:00,
2013-07-16 04:55:00,76.8,74.0,29.88,NE,47,0.0,0.0,91,0.00,,---,0.10,VWS V14.00,2013-07-16 09:55:00,
2013-07-16 04:56:00,76.8,74.3,29.87,NE,47,0.0,0.0,92,0.00,,---,0.10,VWS V14.00,2013-07-16 09:56:00,
2013-07-16 04:57:00,76.8,74.3,29.87,NE,46,0.0,0.0,92,0.00,,---,0.10,VWS V14.00,2013-07-16 09:57:00,
2013-07-16 04:58:00,76.8,74.3,29.87,NE,47,0.0,0.0,92,0.00,,---,0.10,VWS V14.00,2013-07-16 09:58:00,
2013-07-16 05:01:00,76.7,74.2,29.87,NE,47,0.0,0.0,92,0.00,,---,0.10,VWS V14.00,2013-07-16 10:01:00,
2013-07-16 05:02:00,76.7,74.2,29.87,NE,47,0.0,0.0,92,0.00,,---,0.10,VWS V14.00,2013-07-16 10:02:00,
2013-07-16 05:03:00,76.7,74.2,29.87,NE,46,0.0,0.0,92,0.00,,---,0.10,VWS V14.00,2013-07-16 10:03:00,
2013-07-16 05:05:00,76.7,74.2,29.87,NE,47,0.0,0.0,92,0.00,,---,0.10,VWS V14.00,2013-07-16 10:05:00,
2013-07-16 05:06:00,76.6,74.1,29.87,NE,47,0.0,0.0,92,0.00,,---,0.10,VWS V14.00,2013-07-16 10:06:00,
2013-07-16 05:07:00,76.7,74.2,29.87,NE,46,0.0,0.0,92,0.00,,---,0.10,VWS V14.00,2013-07-16 10:07:00,
2013-07-16 05:08:00,76.7,74.2,29.87,NE,47,0.0,0.0,92,0.00,,---,0.10,VWS V14.00,2013-07-16 10:08:00,
2013-07-16 05:10:00,76.6,74.1,29.87,NE,47,0.0,0.0,92,0.00,,---,0.10,VWS V14.00,2013-07-16 10:10:00,
2013-07-16 05:11:00,76.7,74.2,29.87,WNW,289,0.0,0.0,92,0.00,,---,0.10,VWS V14.00,2013-07-16 10:11:00,
2013-07-16 05:12:00,76.7,74.2,29.87,North,355,0.0,0.0,92,0.00,,---,0.10,VWS V14.00,2013-07-16 10:12:00,
2013-07-16 05:13:00,76.7,74.2,29.88,WNW,290,0.0,0.0,92,0.00,,---,0.10,VWS V14.00,2013-07-16 10:13:00,
2013-07-16 05:14:00,76.7,74.2,29.87,WNW,290,0.0,0.0,92,0.00,,---,0.10,VWS V14.00,2013-07-16 10:14:00,
2013-07-16 05:15:00,76.7,74.2,29.87,WNW,289,0.0,0.0,92,0.00,,---,0.10,VWS V14.00,2013-07-16 10:15:00,
2013-07-16 05:16:00,76.8,74.3,29.87,WNW,289,0.0,0.0,92,0.00,,---,0.10,VWS V14.00,2013-07-16 10:16:00,
2013-07-16 05:17:00,76.7,74.2,29.88,WNW,289,0.0,0.0,92,0.00,,---,0.10,VWS V14.00,2013-07-16 10:17:00,
2013-07-16 05:18:00,76.7,74.2,29.88,WNW,289,0.0,0.0,92,0.00,,---,0.10,VWS V14.00,2013-07-16 10:18:00,
2013-07-16 05:20:00,76.8,74.3,29.87,WNW,289,0.0,0.0,92,0.00,,---,0.10,VWS V14.00,2013-07-16 10:20:00,
2013-07-16 05:21:00,76.7,74.2,29.88,WNW,289,0.0,0.0,92,0.00,,---,0.10,VWS V14.00,2013-07-16 10:21:00,
2013-07-16 05:23:00,76.8,74.3,29.88,WNW,289,0.0,0.0,92,0.00,,---,0.10,VWS V14.00,2013-07-16 10:23:00,
2013-07-16 05:24:00,76.8,74.3,29.88,WNW,289,0.0,0.0,92,0.00,,---,0.10,VWS V14.00,2013-07-16 10:24:00,
2013-07-16 05:25:00,76.7,74.2,29.88,WNW,289,0.0,0.0,92,0.00,,---,0.10,VWS V14.00,2013-07-16 10:25:00,
2013-07-16 05:26:00,76.5,74.0,29.88,WNW,289,0.0,0.0,92,0.00,,---,0.10,VWS V14.00,2013-07-16 10:26:00,
2013-07-16 05:27:00,76.6,74.1,29.88,WNW,289,0.0,0.0,92,0.00,,---,0.10,VWS V14.00,2013-07-16 10:27:00,
2013-07-16 05:28:00,76.6,74.1,29.88,WNW,289,0.0,0.0,92,0.00,,---,0.10,VWS V14.00,2013-07-16 10:28:00,
2013-07-16 05:29:00,76.5,74.0,29.88,WNW,289,0.0,0.0,92,0.00,,---,0.10,VWS V14.00,2013-07-16 10:29:00,
2013-07-16 05:30:00,76.5,74.0,29.88,WNW,289,0.0,0.0,92,0.00,,---,0.10,VWS V14.00,2013-07-16 10:30:00,
2013-07-16 05:31:00,76.3,73.8,29.88,WNW,289,0.0,0.0,92,0.00,,---,0.10,VWS V14.00,2013-07-16 10:31:00,
2013-07-16 05:32:00,76.4,73.9,29.88,WNW,289,0.0,0.0,92,0.00,,---,0.10,VWS V14.00,2013-07-16 10:32:00,
2013-07-16 05:33:00,76.4,73.9,29.88,WNW,289,0.0,0.0,92,0.00,,---,0.10,VWS V14.00,2013-07-16 10:33:00,
2013-07-16 05:34:00,76.3,73.8,29.88,WNW,289,0.0,0.0,92,0.00,,---,0.10,VWS V14.00,2013-07-16 10:34:00,
2013-07-16 05:35:00,76.3,73.8,29.88,WNW,289,0.0,0.0,92,0.00,,---,0.10,VWS V14.00,2013-07-16 10:35:00,
2013-07-16 05:36:00,76.3,73.8,29.88,WNW,289,0.0,0.0,92,0.00,,---,0.10,VWS V14.00,2013-07-16 10:36:00,
2013-07-16 05:37:00,76.3,73.8,29.88,WNW,289,0.0,0.0,92,0.00,,---,0.10,VWS V14.00,2013-07-16 10:37:00,
2013-07-16 05:38:00,76.3,73.8,29.88,WNW,289,0.0,0.0,92,0.00,,---,0.10,VWS V14.00,2013-07-16 10:38:00,
2013-07-16 05:39:00,76.2,73.7,29.88,WNW,289,0.0,0.0,92,0.00,,---,0.10,VWS V14.00,2013-07-16 10:39:00,
2013-07-16 05:40:00,76.2,74.0,29.88,WNW,289,0.0,0.0,93,0.00,,---,0.10,VWS V14.00,2013-07-16 10:40:00,
2013-07-16 05:41:00,76.3,74.1,29.88,WNW,289,0.0,0.0,93,0.00,,---,0.10,VWS V14.00,2013-07-16 10:41:00,
2013-07-16 05:42:00,76.3,74.1,29.88,WNW,289,0.0,0.0,93,0.00,,---,0.10,VWS V14.00,2013-07-16 10:42:00,
2013-07-16 05:43:00,76.3,74.1,29.88,WNW,289,0.0,0.0,93,0.00,,---,0.10,VWS V14.00,2013-07-16 10:43:00,
2013-07-16 05:44:00,76.3,74.1,29.88,WNW,289,0.0,0.0,93,0.00,,---,0.10,VWS V14.00,2013-07-16 10:44:00,
2013-07-16 05:45:00,76.4,74.2,29.88,WNW,289,0.0,0.0,93,0.00,,---,0.10,VWS V14.00,2013-07-16 10:45:00,
2013-07-16 05:46:00,76.4,74.2,29.88,WNW,289,0.0,0.0,93,0.00,,---,0.10,VWS V14.00,2013-07-16 10:46:00,
2013-07-16 05:47:00,76.4,74.2,29.88,WNW,289,0.0,0.0,93,0.00,,---,0.10,VWS V14.00,2013-07-16 10:47:00,
2013-07-16 05:48:00,76.3,74.1,29.88,WNW,289,0.0,0.0,93,0.00,,---,0.10,VWS V14.00,2013-07-16 10:48:00,
2013-07-16 05:49:00,76.4,74.2,29.88,WNW,289,0.0,0.0,93,0.00,,---,0.10,VWS V14.00,2013-07-16 10:49:00,
2013-07-16 05:50:00,76.4,74.2,29.88,WNW,289,0.0,0.0,93,0.00,,---,0.10,VWS V14.00,2013-07-16 10:50:00,
2013-07-16 05:51:00,76.4,74.2,29.88,WNW,289,0.0,0.0,93,0.01,,---,0.11,VWS V14.00,2013-07-16 10:51:00,
2013-07-16 05:52:00,76.4,74.2,29.88,WNW,289,0.0,0.0,93,0.00,,---,0.10,VWS V14.00,2013-07-16 10:52:00,
2013-07-16 05:53:00,76.4,74.2,29.88,WNW,289,0.0,0.0,93,0.00,,---,0.10,VWS V14.00,2013-07-16 10:53:00,
2013-07-16 05:54:00,76.4,74.2,29.88,WNW,289,0.0,0.0,93,0.01,,---,0.11,VWS V14.00,2013-07-16 10:54:00,
2013-07-16 05:55:00,76.4,74.2,29.88,WNW,289,0.0,0.0,93,0.01,,---,0.11,VWS V14.00,2013-07-16 10:55:00,
2013-07-16 05:56:00,76.4,74.2,29.89,WNW,289,0.0,0.0,93,0.01,,---,0.11,VWS V14.00,2013-07-16 10:56:00,
2013-07-16 05:57:00,76.4,74.2,29.89,WNW,289,0.0,0.0,93,0.01,,---,0.11,VWS V14.00,2013-07-16 10:57:00,
2013-07-16 05:58:00,76.4,74.2,29.89,WNW,289,0.0,0.0,93,0.01,,---,0.11,VWS V14.00,2013-07-16 10:58:00,
2013-07-16 05:59:00,76.4,74.2,29.89,WNW,289,0.0,0.0,93,0.01,,---,0.11,VWS V14.00,2013-07-16 10:59:00,
2013-07-16 06:00:00,76.4,74.2,29.89,WNW,289,0.0,0.0,93,0.01,,---,0.11,VWS V14.00,2013-07-16 11:00:00,
2013-07-16 06:01:00,76.5,74.3,29.89,WNW,289,0.0,0.0,93,0.01,,---,0.11,VWS V14.00,2013-07-16 11:01:00,
2013-07-16 06:02:00,76.5,74.3,29.89,WNW,289,0.0,0.0,93,0.01,,---,0.11,VWS V14.00,2013-07-16 11:02:00,
2013-07-16 06:03:00,76.5,74.3,29.89,WNW,289,0.0,0.0,93,0.01,,---,0.11,VWS V14.00,2013-07-16 11:03:00,
2013-07-16 06:04:00,76.5,74.3,29.89,WNW,289,0.0,0.0,93,0.01,,---,0.11,VWS V14.00,2013-07-16 11:04:00,
2013-07-16 06:05:00,76.5,74.3,29.89,WNW,289,0.0,0.0,93,0.01,,---,0.11,VWS V14.00,2013-07-16 11:05:00,
2013-07-16 06:06:00,76.6,74.4,29.89,WNW,293,0.0,0.0,93,0.01,,---,0.11,VWS V14.00,2013-07-16 11:06:00,
2013-07-16 06:07:00,76.5,74.3,29.89,WNW,289,0.0,0.0,93,0.01,,---,0.11,VWS V14.00,2013-07-16 11:07:00,
2013-07-16 06:08:00,76.5,74.3,29.89,WNW,290,0.0,0.0,93,0.01,,---,0.11,VWS V14.00,2013-07-16 11:08:00,
2013-07-16 06:09:00,76.6,74.4,29.89,WNW,293,0.0,0.0,93,0.01,,---,0.11,VWS V14.00,2013-07-16 11:09:00,
2013-07-16 06:10:00,76.6,74.4,29.89,WNW,293,0.0,0.0,93,0.01,,---,0.11,VWS V14.00,2013-07-16 11:10:00,
2013-07-16 06:11:00,76.6,74.4,29.89,WNW,293,0.0,0.0,93,0.01,,---,0.11,VWS V14.00,2013-07-16 11:11:00,
2013-07-16 06:12:00,76.6,74.4,29.89,WNW,293,0.0,0.0,93,0.01,,---,0.11,VWS V14.00,2013-07-16 11:12:00,
2013-07-16 06:13:00,76.6,74.4,29.89,WNW,293,0.0,0.0,93,0.01,,---,0.11,VWS V14.00,2013-07-16 11:13:00,
2013-07-16 06:14:00,76.6,74.4,29.89,WNW,293,0.0,0.0,93,0.01,,---,0.11,VWS V14.00,2013-07-16 11:14:00,
2013-07-16 06:15:00,76.5,74.3,29.89,WNW,293,0.0,0.0,93,0.01,,---,0.11,VWS V14.00,2013-07-16 11:15:00,
2013-07-16 06:16:00,76.4,74.2,29.89,WNW,293,0.0,0.0,93,0.01,,---,0.11,VWS V14.00,2013-07-16 11:16:00,
2013-07-16 06:17:00,76.5,74.3,29.89,WNW,293,0.0,0.0,93,0.01,,---,0.11,VWS V14.00,2013-07-16 11:17:00,
2013-07-16 06:18:00,76.5,74.3,29.89,WNW,293,0.0,0.0,93,0.01,,---,0.11,VWS V14.00,2013-07-16 11:18:00,
2013-07-16 06:19:00,76.4,74.2,29.89,WNW,293,0.0,0.0,93,0.01,,---,0.11,VWS V14.00,2013-07-16 11:19:00,
2013-07-16 06:20:00,76.4,74.2,29.89,WNW,293,0.0,0.0,93,0.01,,---,0.11,VWS V14.00,2013-07-16 11:20:00,
2013-07-16 06:21:00,76.6,74.4,29.89,ENE,57,0.0,0.0,93,0.01,,---,0.11,VWS V14.00,2013-07-16 11:21:00,
2013-07-16 06:22:00,76.5,74.3,29.89,NE,38,0.0,0.0,93,0.01,,---,0.11,VWS V14.00,2013-07-16 11:22:00,
2013-07-16 06:23:00,76.5,74.3,29.89,ENE,57,0.0,0.0,93,0.01,,---,0.11,VWS V14.00,2013-07-16 11:23:00,
2013-07-16 06:24:00,76.6,74.4,29.89,ENE,57,0.0,0.0,93,0.01,,---,0.11,VWS V14.00,2013-07-16 11:24:00,
2013-07-16 06:25:00,76.6,74.4,29.89,ENE,57,0.0,0.0,93,0.01,,---,0.11,VWS V14.00,2013-07-16 11:25:00,
2013-07-16 06:26:00,76.6,74.4,29.89,ENE,57,0.0,0.0,93,0.01,,---,0.11,VWS V14.00,2013-07-16 11:26:00,
2013-07-16 06:27:00,76.6,74.4,29.89,ENE,57,0.0,0.0,93,0.01,,---,0.11,VWS V14.00,2013-07-16 11:27:00,
2013-07-16 06:28:00,76.6,74.4,29.89,ENE,57,0.0,0.0,93,0.01,,---,0.11,VWS V14.00,2013-07-16 11:28:00,
2013-07-16 06:29:00,76.6,74.4,29.89,ENE,57,0.0,0.0,93,0.01,,---,0.11,VWS V14.00,2013-07-16 11:29:00,
2013-07-16 06:30:00,76.6,74.4,29.89,ENE,57,0.0,0.0,93,0.01,,---,0.11,VWS V14.00,2013-07-16 11:30:00,
2013-07-16 06:31:00,76.7,74.5,29.89,East,80,0.0,0.0,93,0.01,,---,0.11,VWS V14.00,2013-07-16 11:31:00,
2013-07-16 06:32:00,76.6,74.4,29.89,East,80,0.0,0.0,93,0.01,,---,0.11,VWS V14.00,2013-07-16 11:32:00,
2013-07-16 06:33:00,76.7,74.5,29.89,East,80,0.0,0.0,93,0.01,,---,0.11,VWS V14.00,2013-07-16 11:33:00,
2013-07-16 06:34:00,76.7,74.5,29.89,East,80,0.0,0.0,93,0.01,,---,0.11,VWS V14.00,2013-07-16 11:34:00,
2013-07-16 06:35:00,76.7,74.5,29.89,East,80,0.0,0.0,93,0.01,,---,0.11,VWS V14.00,2013-07-16 11:35:00,
2013-07-16 06:36:00,76.9,74.7,29.89,East,101,0.0,0.0,93,0.01,,---,0.11,VWS V14.00,2013-07-16 11:36:00,
2013-07-16 06:37:00,76.8,74.6,29.89,East,80,0.0,0.0,93,0.01,,---,0.11,VWS V14.00,2013-07-16 11:37:00,
2013-07-16 06:38:00,76.8,74.6,29.89,East,80,0.0,0.0,93,0.01,,---,0.11,VWS V14.00,2013-07-16 11:38:00,
2013-07-16 06:39:00,76.8,74.6,29.89,East,90,0.0,0.0,93,0.01,,---,0.11,VWS V14.00,2013-07-16 11:39:00,
2013-07-16 06:40:00,76.9,74.7,29.89,East,99,0.0,0.0,93,0.01,,---,0.11,VWS V14.00,2013-07-16 11:40:00,
2013-07-16 06:41:00,76.9,74.7,29.89,East,101,0.0,0.0,93,0.01,,---,0.11,VWS V14.00,2013-07-16 11:41:00,
2013-07-16 06:42:00,76.9,74.7,29.89,East,99,0.0,0.0,93,0.01,,---,0.11,VWS V14.00,2013-07-16 11:42:00,
2013-07-16 06:43:00,76.9,74.7,29.89,East,99,0.0,0.0,93,0.01,,---,0.11,VWS V14.00,2013-07-16 11:43:00,
2013-07-16 06:44:00,77.0,74.8,29.89,East,101,0.0,0.0,93,0.01,,---,0.11,VWS V14.00,2013-07-16 11:44:00,
2013-07-16 06:45:00,77.0,74.8,29.89,East,101,0.0,0.0,93,0.01,,---,0.11,VWS V14.00,2013-07-16 11:45:00,
2013-07-16 06:46:00,77.1,74.9,29.89,ESE,103,0.0,0.0,93,0.01,,---,0.11,VWS V14.00,2013-07-16 11:46:00,
2013-07-16 06:47:00,77.0,74.8,29.89,ESE,102,0.0,0.0,93,0.01,,---,0.11,VWS V14.00,2013-07-16 11:47:00,
2013-07-16 06:48:00,77.1,74.9,29.89,ESE,102,0.0,0.0,93,0.01,,---,0.11,VWS V14.00,2013-07-16 11:48:00,
2013-07-16 06:49:00,77.1,74.9,29.89,ESE,103,0.0,0.0,93,0.01,,---,0.11,VWS V14.00,2013-07-16 11:49:00,
2013-07-16 06:50:00,77.1,74.9,29.89,ESE,103,0.0,0.0,93,0.01,,---,0.11,VWS V14.00,2013-07-16 11:50:00,
2013-07-16 06:51:00,77.2,75.0,29.90,ENE,57,0.0,0.0,93,0.00,,---,0.11,VWS V14.00,2013-07-16 11:51:00,
2013-07-16 06:52:00,77.2,75.0,29.89,North,350,0.0,0.0,93,0.01,,---,0.11,VWS V14.00,2013-07-16 11:52:00,
2013-07-16 06:53:00,77.2,75.0,29.90,ENE,57,0.0,0.0,93,0.01,,---,0.11,VWS V14.00,2013-07-16 11:53:00,
2013-07-16 06:54:00,77.2,75.0,29.89,ENE,57,0.0,0.0,93,0.01,,---,0.11,VWS V14.00,2013-07-16 11:54:00,
2013-07-16 06:55:00,77.2,75.0,29.90,ENE,57,0.0,0.0,93,0.00,,---,0.11,VWS V14.00,2013-07-16 11:55:00,
2013-07-16 06:56:00,77.2,75.0,29.90,ENE,76,0.0,0.0,93,0.00,,---,0.11,VWS V14.00,2013-07-16 11:56:00,
2013-07-16 06:57:00,77.3,75.1,29.90,ENE,73,0.0,0.0,93,0.00,,---,0.11,VWS V14.00,2013-07-16 11:57:00,
2013-07-16 06:58:00,77.2,75.0,29.90,ENE,73,0.0,0.0,93,0.00,,---,0.11,VWS V14.00,2013-07-16 11:58:00,
2013-07-16 06:59:00,77.2,75.0,29.90,ENE,73,0.0,0.0,93,0.00,,---,0.11,VWS V14.00,2013-07-16 11:59:00,
2013-07-16 07:00:00,77.2,75.0,29.90,ENE,76,0.0,0.0,93,0.00,,---,0.11,VWS V14.00,2013-07-16 12:00:00,
2013-07-16 07:01:00,77.3,75.1,29.90,ENE,78,0.0,0.0,93,0.00,,---,0.11,VWS V14.00,2013-07-16 12:01:00,
2013-07-16 07:02:00,77.3,75.1,29.90,ENE,78,0.0,0.0,93,0.00,,---,0.11,VWS V14.00,2013-07-16 12:02:00,
2013-07-16 07:03:00,77.2,75.0,29.90,ENE,78,0.0,0.0,93,0.00,,---,0.11,VWS V14.00,2013-07-16 12:03:00,
2013-07-16 07:04:00,77.3,75.1,29.90,ENE,78,0.0,0.0,93,0.00,,---,0.11,VWS V14.00,2013-07-16 12:04:00,
2013-07-16 07:05:00,77.3,75.1,29.90,ENE,78,0.0,0.0,93,0.00,,---,0.11,VWS V14.00,2013-07-16 12:05:00,
2013-07-16 07:06:00,77.4,75.2,29.90,ENE,76,0.0,0.0,93,0.00,,---,0.11,VWS V14.00,2013-07-16 12:06:00,
2013-07-16 07:07:00,77.3,75.1,29.90,ENE,78,0.0,0.0,93,0.00,,---,0.11,VWS V14.00,2013-07-16 12:07:00,
2013-07-16 07:08:00,77.4,75.2,29.90,ENE,78,0.0,0.0,93,0.00,,---,0.11,VWS V14.00,2013-07-16 12:08:00,
2013-07-16 07:09:00,77.4,75.2,29.90,ENE,76,0.0,0.0,93,0.00,,---,0.11,VWS V14.00,2013-07-16 12:09:00,
2013-07-16 07:10:00,77.4,75.2,29.90,ENE,76,0.0,0.0,93,0.00,,---,0.11,VWS V14.00,2013-07-16 12:10:00,
2013-07-16 07:11:00,77.4,75.2,29.90,ENE,76,0.0,0.0,93,0.00,,---,0.11,VWS V14.00,2013-07-16 12:11:00,
2013-07-16 07:12:00,77.4,75.2,29.90,ENE,76,0.0,0.0,93,0.00,,---,0.11,VWS V14.00,2013-07-16 12:12:00,
2013-07-16 07:13:00,77.4,75.2,29.90,ENE,76,0.0,0.0,93,0.00,,---,0.11,VWS V14.00,2013-07-16 12:13:00,
2013-07-16 07:14:00,77.4,75.2,29.90,ENE,76,0.0,0.0,93,0.00,,---,0.11,VWS V14.00,2013-07-16 12:14:00,
2013-07-16 07:15:00,77.5,75.3,29.90,ENE,66,0.0,0.0,93,0.00,,---,0.11,VWS V14.00,2013-07-16 12:15:00,
2013-07-16 07:16:00,77.7,75.5,29.91,East,88,8.0,8.0,93,0.00,,---,0.11,VWS V14.00,2013-07-16 12:16:00,
2013-07-16 07:17:00,77.5,75.3,29.90,NE,51,0.0,0.0,93,0.00,,---,0.11,VWS V14.00,2013-07-16 12:17:00,
2013-07-16 07:18:00,77.6,75.4,29.90,NE,52,0.0,0.0,93,0.00,,---,0.11,VWS V14.00,2013-07-16 12:18:00,
2013-07-16 07:19:00,77.7,75.5,29.91,East,84,8.0,8.0,93,0.00,,---,0.11,VWS V14.00,2013-07-16 12:19:00,
2013-07-16 07:20:00,77.8,75.6,29.91,East,90,6.0,9.0,93,0.01,,---,0.12,VWS V14.00,2013-07-16 12:20:00,
2013-07-16 07:21:00,77.2,74.7,29.90,SSE,161,0.0,0.0,92,0.08,,---,0.19,VWS V14.00,2013-07-16 12:21:00,
2013-07-16 07:22:00,77.9,75.7,29.91,ESE,115,7.0,14.0,93,0.06,,---,0.17,VWS V14.00,2013-07-16 12:22:00,
2013-07-16 07:23:00,77.6,75.4,29.91,SSE,161,0.0,11.0,93,0.07,,---,0.18,VWS V14.00,2013-07-16 12:23:00,
2013-07-16 07:24:00,77.3,74.8,29.91,SSE,161,0.0,0.0,92,0.08,,---,0.19,VWS V14.00,2013-07-16 12:24:00,
2013-07-16 07:25:00,76.8,74.3,29.90,SSE,161,0.0,0.0,92,0.08,,---,0.19,VWS V14.00,2013-07-16 12:25:00,
2013-07-16 07:26:00,77.2,75.0,29.90,East,80,0.0,0.0,93,0.08,,---,0.19,VWS V14.00,2013-07-16 12:26:00,
2013-07-16 07:27:00,76.7,74.5,29.90,East,96,0.0,0.0,93,0.08,,---,0.19,VWS V14.00,2013-07-16 12:27:00,
2013-07-16 07:28:00,76.9,74.7,29.90,East,97,0.0,0.0,93,0.08,,---,0.19,VWS V14.00,2013-07-16 12:28:00,
2013-07-16 07:29:00,77.2,75.0,29.90,East,98,0.0,0.0,93,0.08,,---,0.19,VWS V14.00,2013-07-16 12:29:00,
2013-07-16 07:30:00,77.4,75.2,29.90,ENE,75,0.0,0.0,93,0.08,,---,0.19,VWS V14.00,2013-07-16 12:30:00,
2013-07-16 07:31:00,77.7,75.5,29.90,ENE,72,0.0,0.0,93,0.08,,---,0.19,VWS V14.00,2013-07-16 12:31:00,
2013-07-16 07:32:00,77.6,75.4,29.90,ENE,74,0.0,0.0,93,0.08,,---,0.19,VWS V14.00,2013-07-16 12:32:00,
2013-07-16 07:33:00,77.7,75.5,29.90,ENE,72,0.0,0.0,93,0.08,,---,0.19,VWS V14.00,2013-07-16 12:33:00,
2013-07-16 07:34:00,77.7,75.5,29.90,ENE,72,0.0,0.0,93,0.08,,---,0.19,VWS V14.00,2013-07-16 12:34:00,
2013-07-16 07:35:00,77.7,75.5,29.90,ENE,72,0.0,0.0,93,0.08,,---,0.19,VWS V14.00,2013-07-16 12:35:00,
2013-07-16 07:36:00,78.3,76.1,29.90,NE,56,5.0,5.0,93,0.08,,---,0.19,VWS V14.00,2013-07-16 12:36:00,
2013-07-16 07:37:00,78.0,75.8,29.90,ENE,71,4.0,6.0,93,0.08,,---,0.19,VWS V14.00,2013-07-16 12:37:00,
2013-07-16 07:38:00,78.1,75.9,29.90,ENE,69,5.0,5.0,93,0.08,,---,0.19,VWS V14.00,2013-07-16 12:38:00,
2013-07-16 07:39:00,78.3,76.1,29.90,NE,54,4.0,6.0,93,0.08,,---,0.19,VWS V14.00,2013-07-16 12:39:00,
2013-07-16 07:40:00,78.4,76.2,29.90,ENE,57,4.0,5.0,93,0.08,,---,0.19,VWS V14.00,2013-07-16 12:40:00,
2013-07-16 07:41:00,78.7,76.5,29.90,NE,44,5.0,5.0,93,0.08,,---,0.19,VWS V14.00,2013-07-16 12:41:00,
2013-07-16 07:42:00,78.6,76.4,29.90,NE,53,4.0,5.0,93,0.08,,---,0.19,VWS V14.00,2013-07-16 12:42:00,
2013-07-16 07:43:00,78.7,76.5,29.90,NE,50,6.0,6.0,93,0.08,,---,0.19,VWS V14.00,2013-07-16 12:43:00,
2013-07-16 07:44:00,78.7,76.5,29.90,NE,47,5.0,6.0,93,0.08,,---,0.19,VWS V14.00,2013-07-16 12:44:00,
2013-07-16 07:45:00,78.7,76.5,29.90,NE,48,4.0,6.0,93,0.08,,---,0.19,VWS V14.00,2013-07-16 12:45:00,
2013-07-16 07:46:00,78.8,76.6,29.91,NE,46,4.0,4.0,93,0.08,,---,0.19,VWS V14.00,2013-07-16 12:46:00,
2013-07-16 07:47:00,78.7,76.5,29.91,NE,46,5.0,5.0,93,0.08,,---,0.19,VWS V14.00,2013-07-16 12:47:00,
2013-07-16 07:48:00,78.8,76.6,29.91,NE,46,5.0,5.0,93,0.08,,---,0.19,VWS V14.00,2013-07-16 12:48:00,
2013-07-16 07:49:00,78.8,76.6,29.91,NE,46,4.0,5.0,93,0.08,,---,0.19,VWS V14.00,2013-07-16 12:49:00,
2013-07-16 07:50:00,78.8,76.6,29.91,NE,45,4.0,5.0,93,0.08,,---,0.19,VWS V14.00,2013-07-16 12:50:00,
2013-07-16 07:51:00,79.1,76.9,29.91,NE,51,5.0,6.0,93,0.08,,---,0.19,VWS V14.00,2013-07-16 12:51:00,
2013-07-16 07:52:00,78.9,76.7,29.91,NE,54,4.0,6.0,93,0.08,,---,0.19,VWS V14.00,2013-07-16 12:52:00,
2013-07-16 07:53:00,79.0,76.8,29.91,NE,53,3.0,4.0,93,0.08,,---,0.19,VWS V14.00,2013-07-16 12:53:00,
2013-07-16 07:54:00,79.1,76.9,29.91,NE,44,5.0,6.0,93,0.08,,---,0.19,VWS V14.00,2013-07-16 12:54:00,
2013-07-16 07:55:00,79.1,76.9,29.91,NE,46,3.0,6.0,93,0.08,,---,0.19,VWS V14.00,2013-07-16 12:55:00,
2013-07-16 07:56:00,79.3,77.1,29.91,NE,53,4.0,5.0,93,0.08,,---,0.19,VWS V14.00,2013-07-16 12:56:00,
2013-07-16 07:57:00,79.2,77.0,29.91,NE,46,0.0,0.0,93,0.08,,---,0.19,VWS V14.00,2013-07-16 12:57:00,
2013-07-16 07:58:00,79.3,77.1,29.91,NE,48,0.0,0.0,93,0.08,,---,0.19,VWS V14.00,2013-07-16 12:58:00,
2013-07-16 07:59:00,79.3,77.1,29.91,NE,53,5.0,6.0,93,0.08,,---,0.19,VWS V14.00,2013-07-16 12:59:00,
2013-07-16 08:00:00,79.3,77.1,29.91,NE,43,5.0,5.0,93,0.08,,---,0.19,VWS V14.00,2013-07-16 13:00:00,
2013-07-16 08:01:00,79.5,77.3,29.91,NE,43,4.0,4.0,93,0.08,,---,0.19,VWS V14.00,2013-07-16 13:01:00,
2013-07-16 08:02:00,79.4,77.2,29.91,NNE,32,5.0,6.0,93,0.08,,---,0.19,VWS V14.00,2013-07-16 13:02:00,
2013-07-16 08:03:00,79.4,77.2,29.91,NE,38,4.0,6.0,93,0.08,,---,0.19,VWS V14.00,2013-07-16 13:03:00,
2013-07-16 08:04:00,79.4,77.2,29.91,NE,43,3.0,5.0,93,0.08,,---,0.19,VWS V14.00,2013-07-16 13:04:00,
2013-07-16 08:05:00,79.5,77.3,29.91,NE,39,5.0,6.0,93,0.08,,---,0.19,VWS V14.00,2013-07-16 13:05:00,
2013-07-16 08:06:00,79.6,77.4,29.91,NE,47,4.0,5.0,93,0.08,,---,0.19,VWS V14.00,2013-07-16 13:06:00,
2013-07-16 08:07:00,79.5,77.3,29.91,NE,48,5.0,6.0,93,0.08,,---,0.19,VWS V14.00,2013-07-16 13:07:00,
2013-07-16 08:08:00,79.5,77.3,29.91,NE,47,5.0,6.0,93,0.08,,---,0.19,VWS V14.00,2013-07-16 13:08:00,
2013-07-16 08:09:00,79.5,77.3,29.91,NE,46,4.0,6.0,93,0.08,,---,0.19,VWS V14.00,2013-07-16 13:09:00,
2013-07-16 08:10:00,79.6,77.4,29.91,NE,48,4.0,5.0,93,0.08,,---,0.19,VWS V14.00,2013-07-16 13:10:00,
2013-07-16 08:11:00,79.7,77.5,29.91,East,82,4.0,5.0,93,0.08,,---,0.19,VWS V14.00,2013-07-16 13:11:00,
2013-07-16 08:12:00,79.6,77.4,29.91,ENE,70,5.0,5.0,93,0.08,,---,0.19,VWS V14.00,2013-07-16 13:12:00,
2013-07-16 08:13:00,79.7,77.5,29.91,ENE,76,6.0,6.0,93,0.08,,---,0.19,VWS V14.00,2013-07-16 13:13:00,
2013-07-16 08:14:00,79.7,77.5,29.91,ENE,78,5.0,6.0,93,0.08,,---,0.19,VWS V14.00,2013-07-16 13:14:00,
2013-07-16 08:15:00,79.7,77.5,29.91,ENE,65,4.0,6.0,93,0.08,,---,0.19,VWS V14.00,2013-07-16 13:15:00,
2013-07-16 08:16:00,80.0,77.8,29.92,East,89,10.0,10.0,93,0.08,,---,0.19,VWS V14.00,2013-07-16 13:16:00,
2013-07-16 08:17:00,79.9,77.7,29.91,East,82,1.0,7.0,93,0.08,,---,0.19,VWS V14.00,2013-07-16 13:17:00,
2013-07-16 08:18:00,80.0,77.8,29.92,East,87,3.0,5.0,93,0.08,,---,0.19,VWS V14.00,2013-07-16 13:18:00,
2013-07-16 08:19:00,80.0,77.8,29.92,ENE,76,7.0,7.0,93,0.08,,---,0.19,VWS V14.00,2013-07-16 13:19:00,
2013-07-16 08:20:00,79.9,77.4,29.92,East,100,7.0,10.0,92,0.08,,---,0.19,VWS V14.00,2013-07-16 13:20:00,
2013-07-16 08:21:00,78.9,76.1,29.92,SSE,153,4.0,8.0,91,0.00,,---,0.19,VWS V14.00,2013-07-16 13:21:00,
2013-07-16 08:22:00,79.9,77.7,29.92,SSE,165,7.0,8.0,93,0.05,,---,0.19,VWS V14.00,2013-07-16 13:22:00,
2013-07-16 08:23:00,79.2,76.7,29.92,South,182,5.0,7.0,92,0.02,,---,0.19,VWS V14.00,2013-07-16 13:23:00,
2013-07-16 08:24:00,78.9,76.1,29.92,South,178,7.0,9.0,91,0.01,,---,0.19,VWS V14.00,2013-07-16 13:24:00,
2013-07-16 08:25:00,78.8,75.9,29.92,SE,138,10.0,10.0,91,0.00,,---,0.19,VWS V14.00,2013-07-16 13:25:00,
2013-07-16 08:26:00,79.0,76.2,29.92,East,86,13.0,16.0,91,0.01,,---,0.20,VWS V14.00,2013-07-16 13:26:00,
2013-07-16 08:27:00,78.9,76.4,29.92,SE,126,0.0,6.0,92,0.00,,---,0.19,VWS V14.00,2013-07-16 13:27:00,
2013-07-16 08:28:00,78.9,76.4,29.92,ESE,106,7.0,9.0,92,0.00,,---,0.19,VWS V14.00,2013-07-16 13:28:00,
2013-07-16 08:29:00,79.0,76.2,29.92,East,95,14.0,14.0,91,0.00,,---,0.19,VWS V14.00,2013-07-16 13:29:00,
2013-07-16 08:30:00,79.0,76.2,29.92,East,91,11.0,16.0,91,0.03,,---,0.22,VWS V14.00,2013-07-16 13:30:00,
2013-07-16 08:31:00,79.0,76.2,29.92,East,98,11.0,14.0,91,0.05,,---,0.24,VWS V14.00,2013-07-16 13:31:00,
2013-07-16 08:32:00,78.9,76.1,29.92,East,94,15.0,17.0,91,0.04,,---,0.23,VWS V14.00,2013-07-16 13:32:00,
2013-07-16 08:33:00,78.9,76.1,29.92,East,88,10.0,16.0,91,0.04,,---,0.23,VWS V14.00,2013-07-16 13:33:00,
2013-07-16 08:34:00,79.0,76.2,29.92,ESE,108,14.0,15.0,91,0.05,,---,0.24,VWS V14.00,2013-07-16 13:34:00,
2013-07-16 08:35:00,79.1,76.2,29.92,ESE,107,11.0,14.0,91,0.05,,---,0.24,VWS V14.00,2013-07-16 13:35:00,
2013-07-16 08:36:00,79.6,76.8,29.92,SSE,152,12.0,13.0,91,0.05,,---,0.24,VWS V14.00,2013-07-16 13:36:00,
2013-07-16 08:37:00,79.4,76.6,29.92,ESE,112,13.0,14.0,91,0.05,,---,0.24,VWS V14.00,2013-07-16 13:37:00,
2013-07-16 08:38:00,79.5,76.7,29.92,ESE,117,9.0,15.0,91,0.05,,---,0.24,VWS V14.00,2013-07-16 13:38:00,
2013-07-16 08:39:00,79.6,76.8,29.92,ESE,111,11.0,12.0,91,0.05,,---,0.24,VWS V14.00,2013-07-16 13:39:00,
2013-07-16 08:40:00,79.6,76.8,29.92,ESE,119,11.0,18.0,91,0.05,,---,0.24,VWS V14.00,2013-07-16 13:40:00,
2013-07-16 08:41:00,79.5,76.3,29.92,SE,142,8.0,13.0,90,0.05,,---,0.24,VWS V14.00,2013-07-16 13:41:00,
2013-07-16 08:42:00,79.6,76.4,29.92,SE,130,12.0,20.0,90,0.05,,---,0.24,VWS V14.00,2013-07-16 13:42:00,
2013-07-16 08:43:00,79.7,76.5,29.92,SE,132,9.0,14.0,90,0.05,,---,0.24,VWS V14.00,2013-07-16 13:43:00,
2013-07-16 08:44:00,79.5,76.3,29.92,SE,141,13.0,14.0,90,0.05,,---,0.24,VWS V14.00,2013-07-16 13:44:00,
2013-07-16 08:45:00,79.3,76.1,29.92,SSE,148,14.0,17.0,90,0.05,,---,0.24,VWS V14.00,2013-07-16 13:45:00,
2013-07-16 08:46:00,79.2,75.7,29.93,ESE,123,9.0,13.0,89,0.05,,---,0.24,VWS V14.00,2013-07-16 13:46:00,
2013-07-16 08:47:00,79.0,75.5,29.92,ESE,117,11.0,15.0,89,0.05,,---,0.24,VWS V14.00,2013-07-16 13:47:00,
2013-07-16 08:48:00,79.1,75.6,29.93,ESE,122,12.0,16.0,89,0.05,,---,0.24,VWS V14.00,2013-07-16 13:48:00,
2013-07-16 08:49:00,79.1,75.6,29.93,ESE,120,13.0,14.0,89,0.05,,---,0.24,VWS V14.00,2013-07-16 13:49:00,
2013-07-16 08:50:00,79.2,75.7,29.93,ESE,123,11.0,13.0,89,0.05,,---,0.24,VWS V14.00,2013-07-16 13:50:00,
2013-07-16 08:51:00,79.3,75.8,29.93,ESE,107,7.0,7.0,89,0.05,,---,0.24,VWS V14.00,2013-07-16 13:51:00,
2013-07-16 08:52:00,79.3,75.8,29.93,ESE,120,9.0,12.0,89,0.05,,---,0.24,VWS V14.00,2013-07-16 13:52:00,
2013-07-16 08:53:00,79.3,75.8,29.93,SE,124,12.0,14.0,89,0.05,,---,0.24,VWS V14.00,2013-07-16 13:53:00,
2013-07-16 08:54:00,79.3,75.8,29.93,ESE,110,7.0,12.0,89,0.05,,---,0.24,VWS V14.00,2013-07-16 13:54:00,
2013-07-16 08:55:00,79.4,75.9,29.93,East,94,7.0,7.0,89,0.05,,---,0.24,VWS V14.00,2013-07-16 13:55:00,
2013-07-16 08:56:00,79.5,76.0,29.93,ESE,111,6.0,8.0,89,0.05,,---,0.24,VWS V14.00,2013-07-16 13:56:00,
2013-07-16 08:57:00,79.3,75.8,29.93,ESE,115,6.0,11.0,89,0.05,,---,0.24,VWS V14.00,2013-07-16 13:57:00,
2013-07-16 08:58:00,79.4,75.9,29.93,ESE,105,7.0,8.0,89,0.05,,---,0.24,VWS V14.00,2013-07-16 13:58:00,
2013-07-16 08:59:00,79.5,76.0,29.93,SE,130,8.0,9.0,89,0.05,,---,0.24,VWS V14.00,2013-07-16 13:59:00,
2013-07-16 09:00:00,79.5,76.0,29.93,SE,126,7.0,11.0,89,0.05,,---,0.24,VWS V14.00,2013-07-16 14:00:00,
2013-07-16 09:01:00,79.6,76.1,29.93,ESE,105,8.0,9.0,89,0.05,,---,0.24,VWS V14.00,2013-07-16 14:01:00,
2013-07-16 09:02:00,79.4,75.9,29.92,ESE,109,4.0,11.0,89,0.05,,---,0.24,VWS V14.00,2013-07-16 14:02:00,
2013-07-16 09:03:00,79.5,76.0,29.93,ESE,119,7.0,8.0,89,0.05,,---,0.24,VWS V14.00,2013-07-16 14:03:00,
2013-07-16 09:04:00,79.6,76.1,29.93,ESE,117,9.0,11.0,89,0.05,,---,0.24,VWS V14.00,2013-07-16 14:04:00,
2013-07-16 09:05:00,79.6,75.7,29.93,ESE,111,8.0,11.0,88,0.05,,---,0.24,VWS V14.00,2013-07-16 14:05:00,
2013-07-16 09:06:00,79.6,76.1,29.93,ESE,107,6.0,8.0,89,0.05,,---,0.24,VWS V14.00,2013-07-16 14:06:00,
2013-07-16 09:07:00,79.6,76.1,29.93,ESE,115,6.0,9.0,89,0.05,,---,0.24,VWS V14.00,2013-07-16 14:07:00,
2013-07-16 09:08:00,79.6,76.1,29.93,SE,132,9.0,12.0,89,0.05,,---,0.24,VWS V14.00,2013-07-16 14:08:00,
2013-07-16 09:09:00,79.6,75.7,29.93,East,92,8.0,11.0,88,0.05,,---,0.24,VWS V14.00,2013-07-16 14:09:00,
2013-07-16 09:10:00,79.7,76.2,29.93,ESE,103,12.0,12.0,89,0.05,,---,0.24,VWS V14.00,2013-07-16 14:10:00,
2013-07-16 09:11:00,79.4,75.5,29.93,East,96,11.0,11.0,88,0.05,,---,0.24,VWS V14.00,2013-07-16 14:11:00,
2013-07-16 09:12:00,79.5,75.6,29.93,East,101,9.0,13.0,88,0.05,,---,0.24,VWS V14.00,2013-07-16 14:12:00,
2013-07-16 09:13:00,79.5,75.6,29.93,East,90,13.0,14.0,88,0.05,,---,0.24,VWS V14.00,2013-07-16 14:13:00,
2013-07-16 09:14:00,79.4,75.5,29.93,East,92,11.0,13.0,88,0.05,,---,0.24,VWS V14.00,2013-07-16 14:14:00,
2013-07-16 09:15:00,79.4,75.5,29.93,East,80,8.0,13.0,88,0.05,,---,0.24,VWS V14.00,2013-07-16 14:15:00,
2013-07-16 09:16:00,79.6,75.7,29.94,East,92,6.0,7.0,88,0.05,,---,0.24,VWS V14.00,2013-07-16 14:16:00,
2013-07-16 09:17:00,79.6,75.7,29.93,East,89,6.0,9.0,88,0.05,,---,0.24,VWS V14.00,2013-07-16 14:17:00,
2013-07-16 09:18:00,79.6,75.7,29.93,East,92,8.0,11.0,88,0.05,,---,0.24,VWS V14.00,2013-07-16 14:18:00,
2013-07-16 09:19:00,79.6,75.7,29.93,East,92,7.0,8.0,88,0.05,,---,0.24,VWS V14.00,2013-07-16 14:19:00,
2013-07-16 09:20:00,79.7,75.8,29.94,East,98,8.0,8.0,88,0.05,,---,0.24,VWS V14.00,2013-07-16 14:20:00,
2013-07-16 09:21:00,80.1,76.2,29.94,East,98,6.0,7.0,88,0.05,,---,0.24,VWS V14.00,2013-07-16 14:21:00,
2013-07-16 09:22:00,79.8,75.9,29.94,East,94,5.0,7.0,88,0.05,,---,0.24,VWS V14.00,2013-07-16 14:22:00,
2013-07-16 09:23:00,79.9,76.0,29.94,East,97,4.0,7.0,88,0.05,,---,0.24,VWS V14.00,2013-07-16 14:23:00,
2013-07-16 09:24:00,80.1,76.2,29.94,ESE,115,7.0,7.0,88,0.05,,---,0.24,VWS V14.00,2013-07-16 14:24:00,
2013-07-16 09:25:00,80.0,75.8,29.94,ESE,111,5.0,7.0,87,0.05,,---,0.24,VWS V14.00,2013-07-16 14:25:00,
2013-07-16 09:26:00,80.4,76.2,29.94,ESE,115,6.0,6.0,87,0.05,,---,0.24,VWS V14.00,2013-07-16 14:26:00,
2013-07-16 09:27:00,80.3,76.4,29.94,ESE,114,5.0,8.0,88,0.05,,---,0.24,VWS V14.00,2013-07-16 14:27:00,
2013-07-16 09:28:00,80.3,76.1,29.94,East,92,8.0,9.0,87,0.05,,---,0.24,VWS V14.00,2013-07-16 14:28:00,
2013-07-16 09:29:00,80.4,76.2,29.94,East,90,6.0,8.0,87,0.05,,---,0.24,VWS V14.00,2013-07-16 14:29:00,
2013-07-16 09:30:00,80.4,76.2,29.94,East,97,7.0,7.0,87,0.05,,---,0.24,VWS V14.00,2013-07-16 14:30:00,
2013-07-16 09:31:00,80.8,76.6,29.94,ESE,102,7.0,7.0,87,0.00,,---,0.24,VWS V14.00,2013-07-16 14:31:00,
2013-07-16 09:32:00,80.6,76.4,29.93,ESE,103,5.0,8.0,87,0.02,,---,0.24,VWS V14.00,2013-07-16 14:32:00,
2013-07-16 09:33:00,80.7,76.5,29.94,SE,141,6.0,7.0,87,0.01,,---,0.24,VWS V14.00,2013-07-16 14:33:00,
2013-07-16 09:34:00,80.7,76.5,29.93,ESE,105,6.0,8.0,87,0.01,,---,0.24,VWS V14.00,2013-07-16 14:34:00,
2013-07-16 09:35:00,80.8,76.6,29.94,ESE,103,4.0,7.0,87,0.00,,---,0.24,VWS V14.00,2013-07-16 14:35:00,
2013-07-16 09:36:00,81.0,76.8,29.93,East,83,6.0,7.0,87,0.00,,---,0.24,VWS V14.00,2013-07-16 14:36:00,
2013-07-16 09:37:00,81.0,76.8,29.94,East,93,6.0,7.0,87,0.00,,---,0.24,VWS V14.00,2013-07-16 14:37:00,
2013-07-16 09:38:00,81.0,76.8,29.93,East,94,5.0,6.0,87,0.00,,---,0.24,VWS V14.00,2013-07-16 14:38:00,
2013-07-16 09:39:00,81.0,76.8,29.93,East,96,6.0,7.0,87,0.00,,---,0.24,VWS V14.00,2013-07-16 14:39:00,
2013-07-16 09:40:00,81.1,76.9,29.93,East,96,6.0,7.0,87,0.00,,---,0.24,VWS V14.00,2013-07-16 14:40:00,
2013-07-16 09:41:00,81.3,77.1,29.93,East,97,5.0,7.0,87,0.00,,---,0.24,VWS V14.00,2013-07-16 14:41:00,
2013-07-16 09:42:00,81.1,76.9,29.93,ESE,108,4.0,5.0,87,0.00,,---,0.24,VWS V14.00,2013-07-16 14:42:00,
2013-07-16 09:43:00,81.2,77.0,29.93,East,96,5.0,7.0,87,0.00,,---,0.24,VWS V14.00,2013-07-16 14:43:00,
2013-07-16 09:44:00,81.2,77.0,29.93,East,93,7.0,7.0,87,0.00,,---,0.24,VWS V14.00,2013-07-16 14:44:00,
2013-07-16 09:45:00,81.3,77.1,29.93,ESE,103,8.0,8.0,87,0.00,,---,0.24,VWS V14.00,2013-07-16 14:45:00,
2013-07-16 09:46:00,81.5,77.3,29.93,ESE,113,6.0,8.0,87,0.00,,---,0.24,VWS V14.00,2013-07-16 14:46:00,
2013-07-16 09:47:00,81.4,77.2,29.93,East,96,6.0,8.0,87,0.00,,---,0.24,VWS V14.00,2013-07-16 14:47:00,
2013-07-16 09:48:00,81.4,77.2,29.93,ESE,103,5.0,7.0,87,0.00,,---,0.24,VWS V14.00,2013-07-16 14:48:00,
2013-07-16 09:49:00,81.4,77.2,29.93,East,98,6.0,7.0,87,0.00,,---,0.24,VWS V14.00,2013-07-16 14:49:00,
2013-07-16 09:50:00,81.4,77.2,29.93,SE,136,9.0,13.0,87,0.00,,---,0.24,VWS V14.00,2013-07-16 14:50:00,
2013-07-16 09:51:00,81.6,77.0,29.93,SE,134,13.0,13.0,86,0.00,,---,0.24,VWS V14.00,2013-07-16 14:51:00,
2013-07-16 09:52:00,81.5,76.9,29.93,ESE,121,9.0,15.0,86,0.00,,---,0.24,VWS V14.00,2013-07-16 14:52:00,
2013-07-16 09:53:00,81.6,77.0,29.93,ESE,116,9.0,13.0,86,0.00,,---,0.24,VWS V14.00,2013-07-16 14:53:00,
2013-07-16 09:54:00,81.6,77.0,29.93,ESE,123,12.0,14.0,86,0.00,,---,0.24,VWS V14.00,2013-07-16 14:54:00,
2013-07-16 09:55:00,81.8,77.2,29.93,ESE,112,12.0,14.0,86,0.00,,---,0.24,VWS V14.00,2013-07-16 14:55:00,
2013-07-16 09:56:00,82.1,76.8,29.93,ESE,109,12.0,12.0,84,0.00,,---,0.24,VWS V14.00,2013-07-16 14:56:00,
2013-07-16 09:57:00,81.9,76.9,29.93,ESE,119,12.0,15.0,85,0.00,,---,0.24,VWS V14.00,2013-07-16 14:57:00,
2013-07-16 09:58:00,81.9,76.6,29.93,ESE,109,13.0,14.0,84,0.00,,---,0.24,VWS V14.00,2013-07-16 14:58:00,
2013-07-16 09:59:00,82.0,76.7,29.93,ESE,114,11.0,14.0,84,0.00,,---,0.24,VWS V14.00,2013-07-16 14:59:00,
2013-07-16 10:00:00,82.2,76.9,29.93,SE,124,7.0,12.0,84,0.00,,---,0.24,VWS V14.00,2013-07-16 15:00:00,
2013-07-16 10:01:00,82.4,76.7,29.93,SE,128,9.0,11.0,83,0.00,,---,0.24,VWS V14.00,2013-07-16 15:01:00,
2013-07-16 10:02:00,82.3,77.0,29.93,SE,142,10.0,14.0,84,0.00,,---,0.24,VWS V14.00,2013-07-16 15:02:00,
2013-07-16 10:03:00,82.3,76.6,29.93,ESE,113,15.0,16.0,83,0.00,,---,0.24,VWS V14.00,2013-07-16 15:03:00,
2013-07-16 10:04:00,82.4,76.7,29.93,ESE,108,11.0,16.0,83,0.00,,---,0.24,VWS V14.00,2013-07-16 15:04:00,
2013-07-16 10:05:00,82.4,76.7,29.93,ESE,116,18.0,20.0,83,0.00,,---,0.24,VWS V14.00,2013-07-16 15:05:00,
2013-07-16 10:06:00,82.9,76.8,29.93,ESE,110,13.0,15.0,82,0.00,,---,0.24,VWS V14.00,2013-07-16 15:06:00,
2013-07-16 10:07:00,82.6,76.6,29.93,SE,130,14.0,19.0,82,0.00,,---,0.24,VWS V14.00,2013-07-16 15:07:00,
2013-07-16 10:08:00,82.8,76.8,29.93,ESE,119,12.0,15.0,82,0.00,,---,0.24,VWS V14.00,2013-07-16 15:08:00,
2013-07-16 10:09:00,82.9,76.8,29.93,ESE,107,12.0,14.0,82,0.00,,---,0.24,VWS V14.00,2013-07-16 15:09:00,
2013-07-16 10:10:00,83.0,76.9,29.93,ESE,119,13.0,15.0,82,0.00,,---,0.24,VWS V14.00,2013-07-16 15:10:00,
2013-07-16 10:11:00,83.4,76.6,29.93,ESE,119,13.0,17.0,80,0.00,,---,0.24,VWS V14.00,2013-07-16 15:11:00,
2013-07-16 10:12:00,83.1,76.7,29.93,ESE,117,13.0,20.0,81,0.00,,---,0.24,VWS V14.00,2013-07-16 15:12:00,
2013-07-16 10:13:00,83.3,76.9,29.93,ESE,117,13.0,20.0,81,0.00,,---,0.24,VWS V14.00,2013-07-16 15:13:00,
2013-07-16 10:14:00,83.3,76.5,29.93,SE,126,17.0,17.0,80,0.00,,---,0.24,VWS V14.00,2013-07-16 15:14:00,
2013-07-16 10:15:00,83.4,76.2,29.93,ESE,111,16.0,19.0,79,0.00,,---,0.24,VWS V14.00,2013-07-16 15:15:00,
2013-07-16 10:16:00,83.7,76.5,29.93,ESE,111,13.0,18.0,79,0.00,,---,0.24,VWS V14.00,2013-07-16 15:16:00,
2013-07-16 10:17:00,83.6,76.8,29.93,ESE,115,20.0,20.0,80,0.00,,---,0.24,VWS V14.00,2013-07-16 15:17:00,
2013-07-16 10:18:00,83.5,76.3,29.93,SE,128,13.0,20.0,79,0.00,,---,0.24,VWS V14.00,2013-07-16 15:18:00,
2013-07-16 10:19:00,83.7,76.9,29.93,East,101,16.0,18.0,80,0.00,,---,0.24,VWS V14.00,2013-07-16 15:19:00,
2013-07-16 10:20:00,83.7,76.5,29.93,ESE,119,16.0,18.0,79,0.00,,---,0.24,VWS V14.00,2013-07-16 15:20:00,
2013-07-16 10:21:00,84.2,77.0,29.93,ESE,112,15.0,17.0,79,0.00,,---,0.24,VWS V14.00,2013-07-16 15:21:00,
2013-07-16 10:22:00,84.1,76.5,29.93,SE,126,14.0,21.0,78,0.00,,---,0.24,VWS V14.00,2013-07-16 15:22:00,
2013-07-16 10:23:00,84.2,76.6,29.93,ESE,109,9.0,16.0,78,0.00,,---,0.24,VWS V14.00,2013-07-16 15:23:00,
2013-07-16 10:24:00,84.2,77.0,29.93,ESE,111,14.0,17.0,79,0.00,,---,0.24,VWS V14.00,2013-07-16 15:24:00,
2013-07-16 10:25:00,84.2,76.6,29.93,SE,132,17.0,20.0,78,0.00,,---,0.24,VWS V14.00,2013-07-16 15:25:00,
2013-07-16 10:26:00,84.1,76.5,29.93,ESE,123,15.0,17.0,78,0.00,,---,0.24,VWS V14.00,2013-07-16 15:26:00,
2013-07-16 10:27:00,84.1,76.5,29.93,ESE,123,14.0,20.0,78,0.00,,---,0.24,VWS V14.00,2013-07-16 15:27:00,
2013-07-16 10:28:00,84.1,76.5,29.93,SE,129,19.0,22.0,78,0.00,,---,0.24,VWS V14.00,2013-07-16 15:28:00,
2013-07-16 10:29:00,84.0,76.4,29.93,ESE,117,15.0,19.0,78,0.00,,---,0.24,VWS V14.00,2013-07-16 15:29:00,
2013-07-16 10:30:00,84.0,76.4,29.93,ESE,117,14.0,18.0,78,0.00,,---,0.24,VWS V14.00,2013-07-16 15:30:00,
2013-07-16 10:31:00,84.1,76.5,29.94,SE,130,18.0,18.0,78,0.00,,---,0.24,VWS V14.00,2013-07-16 15:31:00,
2013-07-16 10:32:00,84.0,76.4,29.93,ESE,117,14.0,16.0,78,0.00,,---,0.24,VWS V14.00,2013-07-16 15:32:00,
2013-07-16 10:33:00,84.0,76.4,29.93,ESE,116,16.0,20.0,78,0.00,,---,0.24,VWS V14.00,2013-07-16 15:33:00,
2013-07-16 10:34:00,84.1,76.5,29.93,ESE,111,13.0,16.0,78,0.00,,---,0.24,VWS V14.00,2013-07-16 15:34:00,
2013-07-16 10:35:00,84.1,76.5,29.94,SE,139,13.0,18.0,78,0.00,,---,0.24,VWS V14.00,2013-07-16 15:35:00,
2013-07-16 10:36:00,84.1,76.5,29.93,ESE,118,18.0,18.0,78,0.00,,---,0.24,VWS V14.00,2013-07-16 15:36:00,
2013-07-16 10:38:00,84.0,76.4,29.93,ESE,120,17.0,18.0,78,0.00,,---,0.24,VWS V14.00,2013-07-16 15:38:00,
2013-07-16 10:39:00,84.1,76.5,29.93,ESE,105,15.0,19.0,78,0.00,,---,0.24,VWS V14.00,2013-07-16 15:39:00,
2013-07-16 10:40:00,84.1,76.1,29.93,SSE,147,17.0,19.0,77,0.00,,---,0.24,VWS V14.00,2013-07-16 15:40:00,
2013-07-16 10:41:00,84.3,76.7,29.94,ESE,107,13.0,13.0,78,0.00,,---,0.24,VWS V14.00,2013-07-16 15:41:00,
2013-07-16 10:42:00,84.2,76.2,29.93,SE,134,17.0,18.0,77,0.00,,---,0.24,VWS V14.00,2013-07-16 15:42:00,
2013-07-16 10:43:00,84.2,76.6,29.93,SE,143,14.0,18.0,78,0.00,,---,0.24,VWS V14.00,2013-07-16 15:43:00,
2013-07-16 10:44:00,84.3,76.7,29.93,ESE,123,8.0,17.0,78,0.00,,---,0.24,VWS V14.00,2013-07-16 15:44:00,
2013-07-16 10:45:00,84.5,76.9,29.94,SE,140,17.0,19.0,78,0.00,,---,0.24,VWS V14.00,2013-07-16 15:45:00,
2013-07-16 10:46:00,84.9,77.3,29.94,ESE,119,23.0,23.0,78,0.00,,---,0.24,VWS V14.00,2013-07-16 15:46:00,
2013-07-16 10:47:00,84.6,76.6,29.94,ESE,123,11.0,16.0,77,0.00,,---,0.24,VWS V14.00,2013-07-16 15:47:00,
2013-07-16 10:48:00,84.8,77.6,29.94,ESE,107,13.0,14.0,79,0.00,,---,0.24,VWS V14.00,2013-07-16 15:48:00,
2013-07-16 10:49:00,84.9,77.3,29.94,ESE,109,18.0,19.0,78,0.00,,---,0.24,VWS V14.00,2013-07-16 15:49:00,
2013-07-16 10:50:00,84.9,76.9,29.94,ESE,111,16.0,23.0,77,0.00,,---,0.24,VWS V14.00,2013-07-16 15:50:00,
2013-07-16 10:51:00,85.5,77.5,29.94,ESE,117,12.0,16.0,77,0.00,,---,0.24,VWS V14.00,2013-07-16 15:51:00,
2013-07-16 10:52:00,85.1,76.7,29.94,SE,128,13.0,20.0,76,0.00,,---,0.24,VWS V14.00,2013-07-16 15:52:00,
2013-07-16 10:53:00,85.2,76.8,29.94,SE,136,14.0,20.0,76,0.00,,---,0.24,VWS V14.00,2013-07-16 15:53:00,
2013-07-16 10:54:00,85.4,77.0,29.94,SE,128,15.0,20.0,76,0.00,,---,0.24,VWS V14.00,2013-07-16 15:54:00,
2013-07-16 10:55:00,85.6,77.6,29.94,East,89,13.0,17.0,77,0.00,,---,0.24,VWS V14.00,2013-07-16 15:55:00,
2013-07-16 10:56:00,85.7,77.3,29.94,ESE,118,14.0,16.0,76,0.00,,---,0.24,VWS V14.00,2013-07-16 15:56:00,
2013-07-16 10:57:00,85.7,76.9,29.94,SE,126,18.0,20.0,75,0.00,,---,0.24,VWS V14.00,2013-07-16 15:57:00,
2013-07-16 10:58:00,85.6,76.8,29.94,ESE,120,15.0,21.0,75,0.00,,---,0.24,VWS V14.00,2013-07-16 15:58:00,
2013-07-16 10:59:00,85.7,77.3,29.94,SE,130,15.0,19.0,76,0.00,,---,0.24,VWS V14.00,2013-07-16 15:59:00,
2013-07-16 11:00:00,85.8,77.8,29.94,ESE,119,16.0,16.0,77,0.00,,---,0.24,VWS V14.00,2013-07-16 16:00:00,
2013-07-16 11:01:00,85.7,76.9,29.94,East,95,16.0,23.0,75,0.00,,---,0.24,VWS V14.00,2013-07-16 16:01:00,
2013-07-16 11:02:00,85.8,77.4,29.94,East,98,16.0,19.0,76,0.00,,---,0.24,VWS V14.00,2013-07-16 16:02:00,
2013-07-16 11:03:00,85.8,77.4,29.94,ESE,107,16.0,19.0,76,0.00,,---,0.24,VWS V14.00,2013-07-16 16:03:00,
2013-07-16 11:04:00,85.8,77.0,29.94,ESE,119,18.0,21.0,75,0.00,,---,0.24,VWS V14.00,2013-07-16 16:04:00,
2013-07-16 11:05:00,85.7,76.9,29.94,ESE,105,12.0,23.0,75,0.00,,---,0.24,VWS V14.00,2013-07-16 16:05:00,
2013-07-16 11:06:00,86.2,77.3,29.94,ESE,123,17.0,20.0,75,0.00,,---,0.24,VWS V14.00,2013-07-16 16:06:00,
2013-07-16 11:07:00,85.8,77.0,29.94,East,98,14.0,19.0,75,0.00,,---,0.24,VWS V14.00,2013-07-16 16:07:00,
2013-07-16 11:08:00,86.0,77.2,29.94,ESE,122,12.0,19.0,75,0.00,,---,0.24,VWS V14.00,2013-07-16 16:08:00,
2013-07-16 11:09:00,86.2,77.3,29.94,SE,138,13.0,20.0,75,0.00,,---,0.24,VWS V14.00,2013-07-16 16:09:00,
2013-07-16 11:10:00,86.2,76.9,29.94,SE,132,11.0,21.0,74,0.00,,---,0.24,VWS V14.00,2013-07-16 16:10:00,
2013-07-16 11:11:00,85.9,77.1,29.94,ESE,105,14.0,18.0,75,0.00,,---,0.24,VWS V14.00,2013-07-16 16:11:00,
2013-07-16 11:12:00,85.9,76.7,29.94,SE,130,14.0,19.0,74,0.00,,---,0.24,VWS V14.00,2013-07-16 16:12:00,
2013-07-16 11:13:00,85.8,76.6,29.94,East,96,14.0,21.0,74,0.00,,---,0.24,VWS V14.00,2013-07-16 16:13:00,
2013-07-16 11:14:00,85.9,77.1,29.94,ESE,114,18.0,21.0,75,0.00,,---,0.24,VWS V14.00,2013-07-16 16:14:00,
2013-07-16 11:15:00,85.9,77.1,29.94,ESE,107,18.0,19.0,75,0.00,,---,0.24,VWS V14.00,2013-07-16 16:15:00,
2013-07-16 11:16:00,85.7,76.5,29.94,SE,143,13.0,18.0,74,0.00,,---,0.24,VWS V14.00,2013-07-16 16:16:00,
2013-07-16 11:17:00,86.0,77.2,29.94,SE,133,19.0,19.0,75,0.00,,---,0.24,VWS V14.00,2013-07-16 16:17:00,
2013-07-16 11:18:00,85.9,77.1,29.94,ESE,121,18.0,19.0,75,0.00,,---,0.24,VWS V14.00,2013-07-16 16:18:00,
2013-07-16 11:19:00,85.7,76.5,29.94,ESE,110,18.0,19.0,74,0.00,,---,0.24,VWS V14.00,2013-07-16 16:19:00,
2013-07-16 11:20:00,85.7,76.9,29.94,SE,133,16.0,19.0,75,0.00,,---,0.24,VWS V14.00,2013-07-16 16:20:00,
2013-07-16 11:21:00,85.9,76.7,29.94,SE,142,20.0,21.0,74,0.00,,---,0.24,VWS V14.00,2013-07-16 16:21:00,
2013-07-16 11:22:00,85.7,77.3,29.94,ESE,118,15.0,18.0,76,0.00,,---,0.24,VWS V14.00,2013-07-16 16:22:00,
2013-07-16 11:23:00,85.7,77.3,29.94,SE,137,22.0,23.0,76,0.00,,---,0.24,VWS V14.00,2013-07-16 16:23:00,
2013-07-16 11:24:00,85.8,76.6,29.94,SE,141,19.0,23.0,74,0.00,,---,0.24,VWS V14.00,2013-07-16 16:24:00,
2013-07-16 11:25:00,85.8,76.2,29.94,SE,145,20.0,23.0,73,0.00,,---,0.24,VWS V14.00,2013-07-16 16:25:00,
2013-07-16 11:26:00,85.6,77.2,29.94,South,179,11.0,15.0,76,0.00,,---,0.24,VWS V14.00,2013-07-16 16:26:00,
2013-07-16 11:27:00,85.7,76.5,29.94,SE,136,17.0,21.0,74,0.00,,---,0.24,VWS V14.00,2013-07-16 16:27:00,
2013-07-16 11:28:00,85.9,77.1,29.94,South,182,13.0,17.0,75,0.00,,---,0.24,VWS V14.00,2013-07-16 16:28:00,
2013-07-16 11:29:00,85.7,77.3,29.94,South,178,15.0,19.0,76,0.00,,---,0.24,VWS V14.00,2013-07-16 16:29:00,
2013-07-16 11:30:00,85.4,77.0,29.94,South,182,16.0,16.0,76,0.00,,---,0.24,VWS V14.00,2013-07-16 16:30:00,
2013-07-16 11:31:00,84.8,77.2,29.95,SSE,150,10.0,12.0,78,0.00,,---,0.24,VWS V14.00,2013-07-16 16:31:00,
2013-07-16 11:32:00,84.9,77.3,29.95,SSE,153,11.0,15.0,78,0.00,,---,0.24,VWS V14.00,2013-07-16 16:32:00,
2013-07-16 11:33:00,84.8,76.8,29.95,SSE,163,12.0,12.0,77,0.00,,---,0.24,VWS V14.00,2013-07-16 16:33:00,
2013-07-16 11:34:00,84.8,77.2,29.95,SSE,154,10.0,14.0,78,0.00,,---,0.24,VWS V14.00,2013-07-16 16:34:00,
2013-07-16 11:35:00,84.9,77.3,29.95,SSE,160,7.0,13.0,78,0.00,,---,0.24,VWS V14.00,2013-07-16 16:35:00,
2013-07-16 11:36:00,86.0,78.7,29.94,South,171,10.0,11.0,79,0.00,,---,0.24,VWS V14.00,2013-07-16 16:36:00,
2013-07-16 11:37:00,85.4,78.2,29.95,SE,140,11.0,14.0,79,0.00,,---,0.24,VWS V14.00,2013-07-16 16:37:00,
2013-07-16 11:38:00,85.7,78.4,29.94,SSE,158,8.0,14.0,79,0.00,,---,0.24,VWS V14.00,2013-07-16 16:38:00,
2013-07-16 11:39:00,85.9,78.6,29.94,South,180,10.0,11.0,79,0.00,,---,0.24,VWS V14.00,2013-07-16 16:39:00,
2013-07-16 11:40:00,85.9,78.2,29.94,South,171,14.0,15.0,78,0.00,,---,0.24,VWS V14.00,2013-07-16 16:40:00,
2013-07-16 11:41:00,85.8,77.8,29.94,SSE,159,7.0,9.0,77,0.00,,---,0.24,VWS V14.00,2013-07-16 16:41:00,
2013-07-16 11:42:00,85.8,77.8,29.94,SE,136,13.0,15.0,77,0.00,,---,0.24,VWS V14.00,2013-07-16 16:42:00,
2013-07-16 11:43:00,85.8,77.8,29.94,SE,141,11.0,18.0,77,0.00,,---,0.24,VWS V14.00,2013-07-16 16:43:00,
2013-07-16 11:44:00,85.8,77.8,29.94,SE,146,9.0,11.0,77,0.00,,---,0.24,VWS V14.00,2013-07-16 16:44:00,
2013-07-16 11:45:00,85.8,77.8,29.94,SSE,157,11.0,14.0,77,0.00,,---,0.24,VWS V14.00,2013-07-16 16:45:00,
2013-07-16 11:46:00,86.4,77.1,29.94,ESE,111,14.0,20.0,74,0.00,,---,0.24,VWS V14.00,2013-07-16 16:46:00,
2013-07-16 11:47:00,86.1,78.4,29.94,SSE,167,10.0,12.0,78,0.00,,---,0.24,VWS V14.00,2013-07-16 16:47:00,
2013-07-16 11:48:00,86.3,78.2,29.94,SE,142,14.0,21.0,77,0.00,,---,0.24,VWS V14.00,2013-07-16 16:48:00,
2013-07-16 11:49:00,86.4,77.1,29.94,ESE,119,20.0,20.0,74,0.00,,---,0.24,VWS V14.00,2013-07-16 16:49:00,
2013-07-16 11:50:00,86.6,77.3,29.94,East,92,18.0,20.0,74,0.00,,---,0.24,VWS V14.00,2013-07-16 16:50:00,
2013-07-16 11:51:00,86.9,76.8,29.94,ESE,118,15.0,16.0,72,0.00,,---,0.24,VWS V14.00,2013-07-16 16:51:00,
2013-07-16 11:52:00,86.7,75.8,29.94,SE,124,11.0,18.0,70,0.00,,---,0.24,VWS V14.00,2013-07-16 16:52:00,
2013-07-16 11:53:00,86.8,76.3,29.94,ESE,110,22.0,22.0,71,0.00,,---,0.24,VWS V14.00,2013-07-16 16:53:00,
2013-07-16 11:54:00,86.9,76.8,29.94,ESE,119,16.0,22.0,72,0.00,,---,0.24,VWS V14.00,2013-07-16 16:54:00,
2013-07-16 11:55:00,87.0,76.9,29.94,ESE,107,20.0,20.0,72,0.00,,---,0.24,VWS V14.00,2013-07-16 16:55:00,
2013-07-16 11:56:00,87.0,76.5,29.94,ESE,113,9.0,14.0,71,0.00,,---,0.24,VWS V14.00,2013-07-16 16:56:00,
2013-07-16 11:57:00,87.3,76.8,29.94,SE,126,13.0,21.0,71,0.00,,---,0.24,VWS V14.00,2013-07-16 16:57:00,
2013-07-16 11:58:00,87.2,76.7,29.94,ESE,117,14.0,19.0,71,0.00,,---,0.24,VWS V14.00,2013-07-16 16:58:00,
2013-07-16 11:59:00,87.0,76.5,29.94,ESE,121,14.0,17.0,71,0.00,,---,0.24,VWS V14.00,2013-07-16 16:59:00,
2013-07-16 12:00:00,86.8,76.3,29.94,ESE,117,16.0,16.0,71,0.00,,---,0.24,VWS V14.00,2013-07-16 17:00:00,
2013-07-16 12:01:00,86.9,76.8,29.95,SSE,160,11.0,18.0,72,0.00,,---,0.24,VWS V14.00,2013-07-16 17:01:00,
2013-07-16 12:02:00,86.9,77.2,29.94,ESE,123,11.0,19.0,73,0.00,,---,0.24,VWS V14.00,2013-07-16 17:02:00,
2013-07-16 12:03:00,86.9,76.8,29.94,SE,140,15.0,17.0,72,0.00,,---,0.24,VWS V14.00,2013-07-16 17:03:00,
2013-07-16 12:04:00,86.9,76.8,29.94,SSE,153,15.0,19.0,72,0.00,,---,0.24,VWS V14.00,2013-07-16 17:04:00,
2013-07-16 12:05:00,86.9,76.4,29.95,SE,134,21.0,21.0,71,0.00,,---,0.24,VWS V14.00,2013-07-16 17:05:00,
2013-07-16 12:06:00,86.8,76.7,29.94,SE,146,9.0,12.0,72,0.00,,---,0.24,VWS V14.00,2013-07-16 17:06:00,
2013-07-16 12:07:00,86.9,76.8,29.95,SE,128,13.0,18.0,72,0.00,,---,0.24,VWS V14.00,2013-07-16 17:07:00,
2013-07-16 12:08:00,86.9,76.8,29.95,ESE,108,13.0,15.0,72,0.00,,---,0.24,VWS V14.00,2013-07-16 17:08:00,
2013-07-16 12:09:00,86.8,76.7,29.95,ESE,111,9.0,18.0,72,0.00,,---,0.24,VWS V14.00,2013-07-16 17:09:00,
2013-07-16 12:10:00,86.9,76.8,29.94,SE,130,15.0,15.0,72,0.00,,---,0.24,VWS V14.00,2013-07-16 17:10:00,
2013-07-16 12:11:00,86.7,76.6,29.95,SE,126,13.0,20.0,72,0.00,,---,0.24,VWS V14.00,2013-07-16 17:11:00,
2013-07-16 12:12:00,86.8,76.3,29.95,SE,124,16.0,20.0,71,0.00,,---,0.24,VWS V14.00,2013-07-16 17:12:00,
2013-07-16 12:13:00,86.8,76.3,29.95,ESE,106,13.0,20.0,71,0.00,,---,0.24,VWS V14.00,2013-07-16 17:13:00,
2013-07-16 12:14:00,86.8,76.7,29.95,ESE,116,20.0,20.0,72,0.00,,---,0.24,VWS V14.00,2013-07-16 17:14:00,
2013-07-16 12:15:00,86.6,76.5,29.95,SE,134,11.0,20.0,72,0.00,,---,0.24,VWS V14.00,2013-07-16 17:15:00,
2013-07-16 12:16:00,86.3,77.0,29.94,ESE,118,14.0,16.0,74,0.00,,---,0.24,VWS V14.00,2013-07-16 17:16:00,
2013-07-16 12:17:00,86.2,76.1,29.95,East,101,13.0,22.0,72,0.00,,---,0.24,VWS V14.00,2013-07-16 17:17:00,
2013-07-16 12:18:00,86.2,76.5,29.95,ESE,117,11.0,16.0,73,0.00,,---,0.24,VWS V14.00,2013-07-16 17:18:00,
2013-07-16 12:19:00,86.3,77.0,29.94,ESE,115,15.0,16.0,74,0.00,,---,0.24,VWS V14.00,2013-07-16 17:19:00,
2013-07-16 12:20:00,86.5,77.2,29.94,ESE,123,17.0,18.0,74,0.00,,---,0.24,VWS V14.00,2013-07-16 17:20:00,
2013-07-16 12:21:00,86.9,76.4,29.94,ESE,123,13.0,20.0,71,0.00,,---,0.24,VWS V14.00,2013-07-16 17:21:00,
2013-07-16 12:22:00,86.9,76.4,29.94,SSE,150,13.0,24.0,71,0.00,,---,0.24,VWS V14.00,2013-07-16 17:22:00,
2013-07-16 12:23:00,87.0,76.9,29.94,ESE,122,16.0,21.0,72,0.00,,---,0.24,VWS V14.00,2013-07-16 17:23:00,
2013-07-16 12:24:00,86.9,76.4,29.94,SE,134,19.0,22.0,71,0.00,,---,0.24,VWS V14.00,2013-07-16 17:24:00,
2013-07-16 12:25:00,86.9,76.8,29.94,SE,128,14.0,21.0,72,0.00,,---,0.24,VWS V14.00,2013-07-16 17:25:00,
2013-07-16 12:26:00,87.2,76.7,29.94,ESE,120,17.0,24.0,71,0.00,,---,0.24,VWS V14.00,2013-07-16 17:26:00,
2013-07-16 12:27:00,87.1,76.1,29.94,ESE,123,18.0,19.0,70,0.00,,---,0.24,VWS V14.00,2013-07-16 17:27:00,
2013-07-16 12:28:00,87.1,76.1,29.94,SE,144,12.0,21.0,70,0.00,,---,0.24,VWS V14.00,2013-07-16 17:28:00,
2013-07-16 12:29:00,87.2,76.7,29.94,ESE,115,24.0,24.0,71,0.00,,---,0.24,VWS V14.00,2013-07-16 17:29:00,
2013-07-16 12:30:00,87.1,76.1,29.94,ESE,105,12.0,24.0,70,0.00,,---,0.24,VWS V14.00,2013-07-16 17:30:00,
2013-07-16 12:31:00,87.2,76.7,29.94,ESE,118,16.0,16.0,71,0.00,,---,0.24,VWS V14.00,2013-07-16 17:31:00,
2013-07-16 12:32:00,87.2,76.7,29.94,SE,136,17.0,20.0,71,0.00,,---,0.24,VWS V14.00,2013-07-16 17:32:00,
2013-07-16 12:33:00,87.2,77.1,29.94,ESE,119,15.0,22.0,72,0.00,,---,0.24,VWS V14.00,2013-07-16 17:33:00,
2013-07-16 12:34:00,87.2,76.7,29.94,ESE,117,13.0,18.0,71,0.00,,---,0.24,VWS V14.00,2013-07-16 17:34:00,
2013-07-16 12:35:00,87.2,76.7,29.94,East,99,12.0,17.0,71,0.00,,---,0.24,VWS V14.00,2013-07-16 17:35:00,
2013-07-16 12:36:00,87.0,74.3,29.94,ESE,123,14.0,18.0,66,0.00,,---,0.24,VWS V14.00,2013-07-16 17:36:00,
2013-07-16 12:37:00,87.2,75.4,29.94,SSE,154,15.0,19.0,68,0.00,,---,0.24,VWS V14.00,2013-07-16 17:37:00,
2013-07-16 12:38:00,87.1,75.7,29.94,SE,128,18.0,24.0,69,0.00,,---,0.24,VWS V14.00,2013-07-16 17:38:00,
2013-07-16 12:39:00,87.0,74.3,29.94,ESE,123,13.0,24.0,66,0.00,,---,0.24,VWS V14.00,2013-07-16 17:39:00,
2013-07-16 12:40:00,87.1,75.3,29.94,SE,124,19.0,20.0,68,0.00,,---,0.24,VWS V14.00,2013-07-16 17:40:00,
2013-07-16 12:41:00,87.3,75.0,29.94,SE,132,11.0,14.0,67,0.00,,---,0.24,VWS V14.00,2013-07-16 17:41:00,
2013-07-16 12:42:00,87.2,76.2,29.94,SSE,153,12.0,21.0,70,0.00,,---,0.24,VWS V14.00,2013-07-16 17:42:00,
2013-07-16 12:43:00,87.3,75.4,29.94,ESE,103,12.0,20.0,68,0.00,,---,0.24,VWS V14.00,2013-07-16 17:43:00,
2013-07-16 12:44:00,87.3,75.0,29.94,SE,128,14.0,21.0,67,0.00,,---,0.24,VWS V14.00,2013-07-16 17:44:00,
2013-07-16 12:45:00,87.4,76.0,29.94,SE,142,11.0,19.0,69,0.00,,---,0.24,VWS V14.00,2013-07-16 17:45:00,
2013-07-16 12:46:00,87.8,75.9,29.94,SE,136,17.0,21.0,68,0.00,,---,0.24,VWS V14.00,2013-07-16 17:46:00,
2013-07-16 12:47:00,87.6,75.7,29.94,SE,144,14.0,20.0,68,0.00,,---,0.24,VWS V14.00,2013-07-16 17:47:00,
2013-07-16 12:48:00,87.7,76.7,29.94,SE,136,14.0,17.0,70,0.00,,---,0.24,VWS V14.00,2013-07-16 17:48:00,
2013-07-16 12:49:00,87.8,75.9,29.94,SE,138,14.0,19.0,68,0.00,,---,0.24,VWS V14.00,2013-07-16 17:49:00,
2013-07-16 12:50:00,87.8,75.9,29.94,ESE,113,18.0,21.0,68,0.00,,---,0.24,VWS V14.00,2013-07-16 17:50:00,
2013-07-16 12:51:00,87.9,75.1,29.94,ESE,118,16.0,18.0,66,0.00,,---,0.24,VWS V14.00,2013-07-16 17:51:00,
2013-07-16 12:52:00,87.8,75.9,29.94,SE,124,15.0,18.0,68,0.00,,---,0.24,VWS V14.00,2013-07-16 17:52:00,
2013-07-16 12:53:00,87.9,75.6,29.94,SE,128,13.0,18.0,67,0.00,,---,0.24,VWS V14.00,2013-07-16 17:53:00,
2013-07-16 12:54:00,87.9,75.1,29.94,ESE,104,18.0,25.0,66,0.00,,---,0.24,VWS V14.00,2013-07-16 17:54:00,
2013-07-16 12:55:00,87.9,75.6,29.94,SE,134,19.0,19.0,67,0.00,,---,0.24,VWS V14.00,2013-07-16 17:55:00,
2013-07-16 12:56:00,88.0,75.7,29.94,SE,142,19.0,19.0,67,0.00,,---,0.24,VWS V14.00,2013-07-16 17:56:00,
2013-07-16 12:57:00,88.0,76.1,29.94,ESE,123,19.0,21.0,68,0.00,,---,0.24,VWS V14.00,2013-07-16 17:57:00,
2013-07-16 12:58:00,88.0,75.2,29.94,ESE,119,14.0,26.0,66,0.00,,---,0.24,VWS V14.00,2013-07-16 17:58:00,
2013-07-16 12:59:00,88.1,75.8,29.94,SE,139,17.0,18.0,67,0.00,,---,0.24,VWS V14.00,2013-07-16 17:59:00,
2013-07-16 13:00:00,88.1,75.3,29.94,ESE,119,18.0,20.0,66,0.00,,---,0.24,VWS V14.00,2013-07-16 18:00:00,
2013-07-16 13:01:00,87.4,74.7,29.94,SE,138,18.0,23.0,66,0.00,,---,0.24,VWS V14.00,2013-07-16 18:01:00,
2013-07-16 13:02:00,87.9,75.6,29.94,SE,127,17.0,18.0,67,0.00,,---,0.24,VWS V14.00,2013-07-16 18:02:00,
2013-07-16 13:03:00,87.6,74.8,29.94,SE,124,18.0,22.0,66,0.00,,---,0.24,VWS V14.00,2013-07-16 18:03:00,
2013-07-16 13:04:00,87.5,74.8,29.94,SE,127,19.0,22.0,66,0.00,,---,0.24,VWS V14.00,2013-07-16 18:04:00,
2013-07-16 13:05:00,87.3,74.6,29.94,SSE,161,19.0,23.0,66,0.00,,---,0.24,VWS V14.00,2013-07-16 18:05:00,
2013-07-16 13:06:00,87.2,75.4,29.94,ESE,119,19.0,19.0,68,0.00,,---,0.24,VWS V14.00,2013-07-16 18:06:00,
2013-07-16 13:07:00,87.1,74.8,29.94,SE,128,17.0,22.0,67,0.00,,---,0.24,VWS V14.00,2013-07-16 18:07:00,
2013-07-16 13:08:00,87.2,75.8,29.94,ESE,122,15.0,20.0,69,0.00,,---,0.24,VWS V14.00,2013-07-16 18:08:00,
2013-07-16 13:09:00,87.2,75.8,29.94,ESE,106,16.0,21.0,69,0.00,,---,0.24,VWS V14.00,2013-07-16 18:09:00,
2013-07-16 13:11:00,87.7,75.8,29.94,SE,133,15.0,15.0,68,0.00,,---,0.24,VWS V14.00,2013-07-16 18:11:00,
2013-07-16 13:12:00,87.5,75.6,29.94,SE,128,17.0,18.0,68,0.00,,---,0.24,VWS V14.00,2013-07-16 18:12:00,
2013-07-16 13:13:00,87.5,75.2,29.94,SE,129,11.0,18.0,67,0.00,,---,0.24,VWS V14.00,2013-07-16 18:13:00,
2013-07-16 13:14:00,87.7,75.8,29.94,SE,138,15.0,18.0,68,0.00,,---,0.24,VWS V14.00,2013-07-16 18:14:00,
2013-07-16 13:15:00,87.8,75.5,29.94,SE,139,13.0,24.0,67,0.00,,---,0.24,VWS V14.00,2013-07-16 18:15:00,
2013-07-16 13:16:00,87.9,75.1,29.94,SE,125,15.0,19.0,66,0.00,,---,0.24,VWS V14.00,2013-07-16 18:16:00,
2013-07-16 13:18:00,87.9,75.1,29.94,SE,130,23.0,23.0,66,0.00,,---,0.24,VWS V14.00,2013-07-16 18:18:00,
2013-07-16 13:19:00,87.9,75.1,29.94,SE,130,19.0,23.0,66,0.00,,---,0.24,VWS V14.00,2013-07-16 18:19:00,
2013-07-16 13:21:00,87.9,75.6,29.94,SE,132,21.0,21.0,67,0.00,,---,0.24,VWS V14.00,2013-07-16 18:21:00,
2013-07-16 13:22:00,87.9,76.5,29.94,ESE,122,13.0,20.0,69,0.00,,---,0.24,VWS V14.00,2013-07-16 18:22:00,
2013-07-16 13:23:00,88.0,75.2,29.94,SE,143,20.0,22.0,66,0.00,,---,0.24,VWS V14.00,2013-07-16 18:23:00,
2013-07-16 13:24:00,87.9,75.6,29.94,SE,132,15.0,20.0,67,0.00,,---,0.24,VWS V14.00,2013-07-16 18:24:00,
2013-07-16 13:25:00,88.0,75.2,29.94,ESE,122,16.0,21.0,66,0.00,,---,0.24,VWS V14.00,2013-07-16 18:25:00,
2013-07-16 13:26:00,88.0,76.1,29.94,ESE,114,18.0,18.0,68,0.00,,---,0.24,VWS V14.00,2013-07-16 18:26:00,
2013-07-16 13:27:00,87.9,75.1,29.94,SE,128,15.0,22.0,66,0.00,,---,0.24,VWS V14.00,2013-07-16 18:27:00,
2013-07-16 13:28:00,88.0,76.1,29.94,SE,140,21.0,21.0,68,0.00,,---,0.24,VWS V14.00,2013-07-16 18:28:00,
2013-07-16 13:29:00,88.0,76.1,29.94,ESE,115,14.0,22.0,68,0.00,,---,0.24,VWS V14.00,2013-07-16 18:29:00,
2013-07-16 13:30:00,88.1,76.2,29.94,ESE,113,14.0,22.0,68,0.00,,---,0.24,VWS V14.00,2013-07-16 18:30:00,
2013-07-16 13:31:00,88.3,76.4,29.94,East,96,16.0,19.0,68,0.00,,---,0.24,VWS V14.00,2013-07-16 18:31:00,
2013-07-16 13:32:00,88.0,75.7,29.94,ESE,106,18.0,24.0,67,0.00,,---,0.24,VWS V14.00,2013-07-16 18:32:00,
2013-07-16 13:33:00,88.1,75.8,29.94,SE,130,19.0,20.0,67,0.00,,---,0.24,VWS V14.00,2013-07-16 18:33:00,
2013-07-16 13:34:00,88.3,76.4,29.94,East,97,16.0,19.0,68,0.00,,---,0.24,VWS V14.00,2013-07-16 18:34:00,
2013-07-16 13:35:00,88.4,76.5,29.94,ESE,116,15.0,19.0,68,0.00,,---,0.24,VWS V14.00,2013-07-16 18:35:00,
2013-07-16 13:36:00,88.1,76.2,29.94,ESE,120,17.0,22.0,68,0.00,,---,0.24,VWS V14.00,2013-07-16 18:36:00,
2013-07-16 13:37:00,88.5,76.6,29.94,ESE,119,22.0,22.0,68,0.00,,---,0.24,VWS V14.00,2013-07-16 18:37:00,
2013-07-16 13:38:00,88.4,75.6,29.94,ESE,108,18.0,22.0,66,0.00,,---,0.24,VWS V14.00,2013-07-16 18:38:00,
2013-07-16 13:39:00,88.2,75.4,29.94,ESE,120,17.0,20.0,66,0.00,,---,0.24,VWS V14.00,2013-07-16 18:39:00,
2013-07-16 13:40:00,88.1,75.8,29.94,SE,136,15.0,23.0,67,0.00,,---,0.24,VWS V14.00,2013-07-16 18:40:00,
2013-07-16 13:41:00,87.9,75.6,29.93,ESE,109,15.0,19.0,67,0.00,,---,0.24,VWS V14.00,2013-07-16 18:41:00,
2013-07-16 13:42:00,88.1,76.2,29.94,ESE,103,13.0,18.0,68,0.00,,---,0.24,VWS V14.00,2013-07-16 18:42:00,
2013-07-16 13:43:00,88.0,76.6,29.93,ESE,117,20.0,20.0,69,0.00,,---,0.24,VWS V14.00,2013-07-16 18:43:00,
2013-07-16 13:44:00,87.9,76.0,29.94,ESE,121,16.0,22.0,68,0.00,,---,0.24,VWS V14.00,2013-07-16 18:44:00,
2013-07-16 13:45:00,87.8,75.5,29.93,East,82,13.0,19.0,67,0.00,,---,0.24,VWS V14.00,2013-07-16 18:45:00,
2013-07-16 13:46:00,88.1,77.5,29.93,ESE,111,20.0,24.0,71,0.00,,---,0.24,VWS V14.00,2013-07-16 18:46:00,
2013-07-16 13:47:00,87.8,76.8,29.93,ESE,121,12.0,16.0,70,0.00,,---,0.24,VWS V14.00,2013-07-16 18:47:00,
2013-07-16 13:48:00,87.9,76.5,29.93,ESE,102,7.0,16.0,69,0.00,,---,0.24,VWS V14.00,2013-07-16 18:48:00,
2013-07-16 13:49:00,88.1,77.5,29.93,ESE,118,24.0,24.0,71,0.00,,---,0.24,VWS V14.00,2013-07-16 18:49:00,
2013-07-16 13:50:00,88.1,76.7,29.93,ESE,115,20.0,24.0,69,0.00,,---,0.24,VWS V14.00,2013-07-16 18:50:00,
2013-07-16 13:51:00,88.7,77.2,29.93,SE,142,13.0,16.0,69,0.00,,---,0.24,VWS V14.00,2013-07-16 18:51:00,
2013-07-16 13:52:00,88.0,76.1,29.93,SE,140,13.0,22.0,68,0.00,,---,0.24,VWS V14.00,2013-07-16 18:52:00,
2013-07-16 13:53:00,88.4,77.4,29.93,SSE,155,15.0,17.0,70,0.00,,---,0.24,VWS V14.00,2013-07-16 18:53:00,
2013-07-16 13:54:00,88.6,77.1,29.93,SSE,157,10.0,20.0,69,0.00,,---,0.24,VWS V14.00,2013-07-16 18:54:00,
2013-07-16 13:55:00,88.7,77.2,29.93,SE,146,13.0,16.0,69,0.00,,---,0.24,VWS V14.00,2013-07-16 18:55:00,
2013-07-16 13:56:00,88.1,75.8,29.93,East,101,15.0,18.0,67,0.00,,---,0.24,VWS V14.00,2013-07-16 18:56:00,
2013-07-16 13:57:00,88.9,76.5,29.93,ESE,119,19.0,23.0,67,0.00,,---,0.24,VWS V14.00,2013-07-16 18:57:00,
2013-07-16 13:58:00,88.5,76.2,29.93,ESE,116,16.0,24.0,67,0.00,,---,0.24,VWS V14.00,2013-07-16 18:58:00,
2013-07-16 13:59:00,88.1,75.8,29.93,SE,124,16.0,19.0,67,0.00,,---,0.24,VWS V14.00,2013-07-16 18:59:00,
2013-07-16 14:00:00,88.0,76.1,29.93,ESE,116,18.0,21.0,68,0.00,,---,0.24,VWS V14.00,2013-07-16 19:00:00,
2013-07-16 14:01:00,86.9,76.4,29.93,South,173,17.0,22.0,71,0.00,,---,0.24,VWS V14.00,2013-07-16 19:01:00,
2013-07-16 14:02:00,88.1,76.7,29.93,SSE,150,21.0,22.0,69,0.00,,---,0.24,VWS V14.00,2013-07-16 19:02:00,
2013-07-16 14:03:00,87.6,76.6,29.93,SSE,156,21.0,26.0,70,0.00,,---,0.24,VWS V14.00,2013-07-16 19:03:00,
2013-07-16 14:04:00,87.1,76.6,29.93,South,172,22.0,24.0,71,0.00,,---,0.24,VWS V14.00,2013-07-16 19:04:00,
2013-07-16 14:05:00,86.9,76.8,29.93,SSE,168,21.0,22.0,72,0.00,,---,0.24,VWS V14.00,2013-07-16 19:05:00,
2013-07-16 14:06:00,86.3,77.0,29.93,South,177,21.0,21.0,74,0.00,,---,0.24,VWS V14.00,2013-07-16 19:06:00,
2013-07-16 14:07:00,86.5,76.8,29.93,South,176,24.0,24.0,73,0.00,,---,0.24,VWS V14.00,2013-07-16 19:07:00,
2013-07-16 14:08:00,86.3,76.6,29.93,South,179,19.0,24.0,73,0.00,,---,0.24,VWS V14.00,2013-07-16 19:08:00,
2013-07-16 14:09:00,86.3,77.0,29.93,South,176,11.0,20.0,74,0.00,,---,0.24,VWS V14.00,2013-07-16 19:09:00,
2013-07-16 14:10:00,86.5,77.2,29.93,South,178,19.0,22.0,74,0.00,,---,0.24,VWS V14.00,2013-07-16 19:10:00,
2013-07-16 14:11:00,86.4,76.7,29.93,SSE,163,14.0,22.0,73,0.00,,---,0.24,VWS V14.00,2013-07-16 19:11:00,
2013-07-16 14:12:00,86.4,76.7,29.93,SE,144,14.0,19.0,73,0.00,,---,0.24,VWS V14.00,2013-07-16 19:12:00,
2013-07-16 17:24:00,84.0,75.2,29.92,East,101,16.0,16.0,75,0.00,,---,0.25,VWS V14.00,2013-07-16 22:24:00,
2013-07-16 17:28:00,84.0,75.2,29.92,East,101,16.0,16.0,75,0.01,,---,0.25,VWS V14.00,2013-07-16 22:28:00,